<?xml version="1.0" encoding="utf-8"?>
<gpx xmlns:xsi="http://www.w3.org/2001/XMLSchema-instance" xmlns:xsd="http://www.w3.org/2001/XMLSchema" version="1.1" creator="Shapelink.com" xmlns="http://www.topografix.com/GPX/1/1" xmlns:gpxtpx="http://www.garmin.com/xmlschemas/TrackPointExtension/v1">
  <metadata>
    <name>Löpning 21.11 km, 2019-05-18</name>
    <desc></desc>
    <author><name>Marian Moron</name></author> 
    <time>2019-05-18T10:33:37Z</time>
  </metadata>
  <trk>
    <name>Löpning 21.11 km, 2019-05-18</name>
    <trkseg>
      <trkpt lat="51.230183193556" lon="4.458548695382">
        <ele>17</ele>
        <time>2019-05-18T10:33:37Z</time>
      </trkpt>
      <trkpt lat="51.23016777086" lon="4.458712226251">
        <ele>15.6</ele>
        <time>2019-05-18T10:33:43Z</time>
      </trkpt>
      <trkpt lat="51.230197861881" lon="4.458735947028">
        <ele>15.2</ele>
        <time>2019-05-18T10:33:45Z</time>
      </trkpt>
      <trkpt lat="51.230383269509" lon="4.458756901778">
        <ele>13.2</ele>
        <time>2019-05-18T10:33:53Z</time>
      </trkpt>
      <trkpt lat="51.230580495616" lon="4.458765535135">
        <ele>13.8</ele>
        <time>2019-05-18T10:34:00Z</time>
      </trkpt>
      <trkpt lat="51.230664985168" lon="4.459019590524">
        <ele>15</ele>
        <time>2019-05-18T10:34:06Z</time>
      </trkpt>
      <trkpt lat="51.230689711773" lon="4.459311196825">
        <ele>14.6</ele>
        <time>2019-05-18T10:34:12Z</time>
      </trkpt>
      <trkpt lat="51.230719132242" lon="4.45961587889">
        <ele>14.8</ele>
        <time>2019-05-18T10:34:19Z</time>
      </trkpt>
      <trkpt lat="51.230756683154" lon="4.459749318738">
        <ele>14.8</ele>
        <time>2019-05-18T10:34:23Z</time>
      </trkpt>
      <trkpt lat="51.230829521865" lon="4.459812434445">
        <ele>15</ele>
        <time>2019-05-18T10:34:27Z</time>
      </trkpt>
      <trkpt lat="51.231020713004" lon="4.459718557165">
        <ele>15.6</ele>
        <time>2019-05-18T10:34:34Z</time>
      </trkpt>
      <trkpt lat="51.231220788957" lon="4.459641192228">
        <ele>17.2</ele>
        <time>2019-05-18T10:34:41Z</time>
      </trkpt>
      <trkpt lat="51.231431426104" lon="4.459621075668">
        <ele>19.6</ele>
        <time>2019-05-18T10:34:49Z</time>
      </trkpt>
      <trkpt lat="51.231617588103" lon="4.459612777587">
        <ele>20.2</ele>
        <time>2019-05-18T10:34:56Z</time>
      </trkpt>
      <trkpt lat="51.231795116745" lon="4.459685532479">
        <ele>23</ele>
        <time>2019-05-18T10:35:04Z</time>
      </trkpt>
      <trkpt lat="51.231821184454" lon="4.45968712504">
        <ele>23.2</ele>
        <time>2019-05-18T10:35:05Z</time>
      </trkpt>
      <trkpt lat="51.231966191324" lon="4.459721742287">
        <ele>24</ele>
        <time>2019-05-18T10:35:11Z</time>
      </trkpt>
      <trkpt lat="51.232056045292" lon="4.459977809332">
        <ele>25.2</ele>
        <time>2019-05-18T10:35:17Z</time>
      </trkpt>
      <trkpt lat="51.232152437142" lon="4.460276540248">
        <ele>25.8</ele>
        <time>2019-05-18T10:35:23Z</time>
      </trkpt>
      <trkpt lat="51.23220708713" lon="4.460556663346">
        <ele>26.8</ele>
        <time>2019-05-18T10:35:30Z</time>
      </trkpt>
      <trkpt lat="51.232158723567" lon="4.460850365122">
        <ele>25</ele>
        <time>2019-05-18T10:35:35Z</time>
      </trkpt>
      <trkpt lat="51.232121507931" lon="4.461159238137">
        <ele>23.2</ele>
        <time>2019-05-18T10:35:41Z</time>
      </trkpt>
      <trkpt lat="51.232058224586" lon="4.461429386774">
        <ele>22.6</ele>
        <time>2019-05-18T10:35:48Z</time>
      </trkpt>
      <trkpt lat="51.232045819374" lon="4.461433829181">
        <ele>22.6</ele>
        <time>2019-05-18T10:35:49Z</time>
      </trkpt>
      <trkpt lat="51.231919168865" lon="4.461508260453">
        <ele>23.2</ele>
        <time>2019-05-18T10:36:00Z</time>
      </trkpt>
      <trkpt lat="51.231926880213" lon="4.461536842732">
        <ele>23.4</ele>
        <time>2019-05-18T10:36:02Z</time>
      </trkpt>
      <trkpt lat="51.231972645387" lon="4.461512954317">
        <ele>23</ele>
        <time>2019-05-18T10:36:04Z</time>
      </trkpt>
      <trkpt lat="51.232116311153" lon="4.461399128115">
        <ele>21.6</ele>
        <time>2019-05-18T10:36:17Z</time>
      </trkpt>
      <trkpt lat="51.23228839156" lon="4.461551930152">
        <ele>19.6</ele>
        <time>2019-05-18T10:36:25Z</time>
      </trkpt>
      <trkpt lat="51.232382017383" lon="4.461817887839">
        <ele>17.8</ele>
        <time>2019-05-18T10:36:31Z</time>
      </trkpt>
      <trkpt lat="51.2324275311" lon="4.46210781776">
        <ele>16.8</ele>
        <time>2019-05-18T10:36:38Z</time>
      </trkpt>
      <trkpt lat="51.232470697885" lon="4.462415936404">
        <ele>15.4</ele>
        <time>2019-05-18T10:36:45Z</time>
      </trkpt>
      <trkpt lat="51.232469524419" lon="4.462746434721">
        <ele>15.6</ele>
        <time>2019-05-18T10:36:54Z</time>
      </trkpt>
      <trkpt lat="51.23250213001" lon="4.463051535881">
        <ele>14.6</ele>
        <time>2019-05-18T10:37:01Z</time>
      </trkpt>
      <trkpt lat="51.232515792507" lon="4.46334079525">
        <ele>13.6</ele>
        <time>2019-05-18T10:37:08Z</time>
      </trkpt>
      <trkpt lat="51.232548901012" lon="4.463646483143">
        <ele>12.8</ele>
        <time>2019-05-18T10:37:14Z</time>
      </trkpt>
      <trkpt lat="51.232574884902" lon="4.463952338674">
        <ele>11.8</ele>
        <time>2019-05-18T10:37:20Z</time>
      </trkpt>
      <trkpt lat="51.232580500775" lon="4.464242184776">
        <ele>11.4</ele>
        <time>2019-05-18T10:37:26Z</time>
      </trkpt>
      <trkpt lat="51.232527359529" lon="4.464542843529">
        <ele>10.4</ele>
        <time>2019-05-18T10:37:34Z</time>
      </trkpt>
      <trkpt lat="51.232461142519" lon="4.464808298302">
        <ele>10.4</ele>
        <time>2019-05-18T10:37:41Z</time>
      </trkpt>
      <trkpt lat="51.232359050977" lon="4.465053636515">
        <ele>10.6</ele>
        <time>2019-05-18T10:37:48Z</time>
      </trkpt>
      <trkpt lat="51.232258971091" lon="4.465298052719">
        <ele>11.4</ele>
        <time>2019-05-18T10:37:55Z</time>
      </trkpt>
      <trkpt lat="51.232141037758" lon="4.465539619077">
        <ele>13.2</ele>
        <time>2019-05-18T10:38:02Z</time>
      </trkpt>
      <trkpt lat="51.232031821601" lon="4.465768696404">
        <ele>14.4</ele>
        <time>2019-05-18T10:38:08Z</time>
      </trkpt>
      <trkpt lat="51.231913972087" lon="4.466018309386">
        <ele>16.6</ele>
        <time>2019-05-18T10:38:15Z</time>
      </trkpt>
      <trkpt lat="51.231783465904" lon="4.4662618874">
        <ele>18.6</ele>
        <time>2019-05-18T10:38:22Z</time>
      </trkpt>
      <trkpt lat="51.231660335793" lon="4.46652004992">
        <ele>18.4</ele>
        <time>2019-05-18T10:38:29Z</time>
      </trkpt>
      <trkpt lat="51.231554640034" lon="4.466776116965">
        <ele>19</ele>
        <time>2019-05-18T10:38:36Z</time>
      </trkpt>
      <trkpt lat="51.231477526554" lon="4.467063364678">
        <ele>22.8</ele>
        <time>2019-05-18T10:38:43Z</time>
      </trkpt>
      <trkpt lat="51.231464199333" lon="4.467203258589">
        <ele>24.2</ele>
        <time>2019-05-18T10:38:47Z</time>
      </trkpt>
      <trkpt lat="51.231616414637" lon="4.467379529946">
        <ele>22.4</ele>
        <time>2019-05-18T10:38:55Z</time>
      </trkpt>
      <trkpt lat="51.231800145885" lon="4.467404172732">
        <ele>21</ele>
        <time>2019-05-18T10:39:02Z</time>
      </trkpt>
      <trkpt lat="51.231979267088" lon="4.467479358375">
        <ele>16.8</ele>
        <time>2019-05-18T10:39:10Z</time>
      </trkpt>
      <trkpt lat="51.232196358298" lon="4.467605086875">
        <ele>14.6</ele>
        <time>2019-05-18T10:39:20Z</time>
      </trkpt>
      <trkpt lat="51.232300377677" lon="4.467848832527">
        <ele>11.8</ele>
        <time>2019-05-18T10:39:26Z</time>
      </trkpt>
      <trkpt lat="51.232407079264" lon="4.468092829636">
        <ele>8.2</ele>
        <time>2019-05-18T10:39:33Z</time>
      </trkpt>
      <trkpt lat="51.232517971801" lon="4.468318386565">
        <ele>5.6</ele>
        <time>2019-05-18T10:39:40Z</time>
      </trkpt>
      <trkpt lat="51.232665660879" lon="4.468522066735">
        <ele>4.6</ele>
        <time>2019-05-18T10:39:47Z</time>
      </trkpt>
      <trkpt lat="51.232813769052" lon="4.468696074979">
        <ele>6.2</ele>
        <time>2019-05-18T10:39:54Z</time>
      </trkpt>
      <trkpt lat="51.232962463958" lon="4.46891392056">
        <ele>6.8</ele>
        <time>2019-05-18T10:40:01Z</time>
      </trkpt>
      <trkpt lat="51.233043097836" lon="4.469246179076">
        <ele>10.2</ele>
        <time>2019-05-18T10:40:07Z</time>
      </trkpt>
      <trkpt lat="51.233167149956" lon="4.469477770973">
        <ele>12.2</ele>
        <time>2019-05-18T10:40:14Z</time>
      </trkpt>
      <trkpt lat="51.233288436049" lon="4.469721432806">
        <ele>10.8</ele>
        <time>2019-05-18T10:40:21Z</time>
      </trkpt>
      <trkpt lat="51.233403519536" lon="4.469954701083">
        <ele>11.4</ele>
        <time>2019-05-18T10:40:30Z</time>
      </trkpt>
      <trkpt lat="51.233524051258" lon="4.470177324347">
        <ele>9.6</ele>
        <time>2019-05-18T10:40:38Z</time>
      </trkpt>
      <trkpt lat="51.233628908827" lon="4.470417465782">
        <ele>9.2</ele>
        <time>2019-05-18T10:40:45Z</time>
      </trkpt>
      <trkpt lat="51.233758073906" lon="4.470660959977">
        <ele>7.2</ele>
        <time>2019-05-18T10:40:53Z</time>
      </trkpt>
      <trkpt lat="51.233905679165" lon="4.470870675115">
        <ele>8.8</ele>
        <time>2019-05-18T10:41:01Z</time>
      </trkpt>
      <trkpt lat="51.234029731285" lon="4.47112422759">
        <ele>9.2</ele>
        <time>2019-05-18T10:41:09Z</time>
      </trkpt>
      <trkpt lat="51.234111119534" lon="4.471439470849">
        <ele>15.4</ele>
        <time>2019-05-18T10:41:15Z</time>
      </trkpt>
      <trkpt lat="51.234218491673" lon="4.471694783523">
        <ele>19</ele>
        <time>2019-05-18T10:41:22Z</time>
      </trkpt>
      <trkpt lat="51.234327037278" lon="4.471927800343">
        <ele>17.8</ele>
        <time>2019-05-18T10:41:29Z</time>
      </trkpt>
      <trkpt lat="51.234451676131" lon="4.472148076675">
        <ele>14.4</ele>
        <time>2019-05-18T10:41:37Z</time>
      </trkpt>
      <trkpt lat="51.234593833155" lon="4.472380422943">
        <ele>13.2</ele>
        <time>2019-05-18T10:41:45Z</time>
      </trkpt>
      <trkpt lat="51.234726518632" lon="4.472588629339">
        <ele>13.2</ele>
        <time>2019-05-18T10:41:52Z</time>
      </trkpt>
      <trkpt lat="51.234801620456" lon="4.472851318085">
        <ele>12</ele>
        <time>2019-05-18T10:41:59Z</time>
      </trkpt>
      <trkpt lat="51.234884685085" lon="4.473151054829">
        <ele>11</ele>
        <time>2019-05-18T10:42:06Z</time>
      </trkpt>
      <trkpt lat="51.234959032538" lon="4.473444169872">
        <ele>9.6</ele>
        <time>2019-05-18T10:42:13Z</time>
      </trkpt>
      <trkpt lat="51.235054753836" lon="4.473705601333">
        <ele>7</ele>
        <time>2019-05-18T10:42:20Z</time>
      </trkpt>
      <trkpt lat="51.235170759332" lon="4.473944317845">
        <ele>1.2</ele>
        <time>2019-05-18T10:42:27Z</time>
      </trkpt>
      <trkpt lat="51.235234126496" lon="4.474251933575">
        <ele>0</ele>
        <time>2019-05-18T10:42:34Z</time>
      </trkpt>
      <trkpt lat="51.235285591362" lon="4.474539348926">
        <ele>0</ele>
        <time>2019-05-18T10:42:41Z</time>
      </trkpt>
      <trkpt lat="51.235333703468" lon="4.474828356838">
        <ele>0</ele>
        <time>2019-05-18T10:42:48Z</time>
      </trkpt>
      <trkpt lat="51.235401010125" lon="4.475104372805">
        <ele>0.6</ele>
        <time>2019-05-18T10:42:55Z</time>
      </trkpt>
      <trkpt lat="51.235478291243" lon="4.475386172283">
        <ele>3.4</ele>
        <time>2019-05-18T10:43:02Z</time>
      </trkpt>
      <trkpt lat="51.235562529338" lon="4.47564877721">
        <ele>8.6</ele>
        <time>2019-05-18T10:43:09Z</time>
      </trkpt>
      <trkpt lat="51.235636373877" lon="4.475918003838">
        <ele>11.8</ele>
        <time>2019-05-18T10:43:16Z</time>
      </trkpt>
      <trkpt lat="51.23571155952" lon="4.47622712831">
        <ele>13.2</ele>
        <time>2019-05-18T10:43:24Z</time>
      </trkpt>
      <trkpt lat="51.235780626376" lon="4.476508173417">
        <ele>15.6</ele>
        <time>2019-05-18T10:43:31Z</time>
      </trkpt>
      <trkpt lat="51.235847011024" lon="4.476782177728">
        <ele>18.2</ele>
        <time>2019-05-18T10:43:38Z</time>
      </trkpt>
      <trkpt lat="51.235932422585" lon="4.477042184266">
        <ele>16.8</ele>
        <time>2019-05-18T10:43:45Z</time>
      </trkpt>
      <trkpt lat="51.236011715359" lon="4.477333287653">
        <ele>18.6</ele>
        <time>2019-05-18T10:43:52Z</time>
      </trkpt>
      <trkpt lat="51.236071059211" lon="4.47763361113">
        <ele>16.4</ele>
        <time>2019-05-18T10:43:59Z</time>
      </trkpt>
      <trkpt lat="51.236103245707" lon="4.477963438895">
        <ele>10.2</ele>
        <time>2019-05-18T10:44:06Z</time>
      </trkpt>
      <trkpt lat="51.236114225996" lon="4.478281196724">
        <ele>4.8</ele>
        <time>2019-05-18T10:44:13Z</time>
      </trkpt>
      <trkpt lat="51.236157644238" lon="4.478598032544">
        <ele>3.2</ele>
        <time>2019-05-18T10:44:21Z</time>
      </trkpt>
      <trkpt lat="51.236142556818" lon="4.478918388762">
        <ele>2.8</ele>
        <time>2019-05-18T10:44:29Z</time>
      </trkpt>
      <trkpt lat="51.236133923461" lon="4.479227680872">
        <ele>0.6</ele>
        <time>2019-05-18T10:44:37Z</time>
      </trkpt>
      <trkpt lat="51.236118165489" lon="4.479536134792">
        <ele>0</ele>
        <time>2019-05-18T10:44:44Z</time>
      </trkpt>
      <trkpt lat="51.236129061959" lon="4.479869818231">
        <ele>0</ele>
        <time>2019-05-18T10:44:52Z</time>
      </trkpt>
      <trkpt lat="51.23611640529" lon="4.480157149763">
        <ele>0</ele>
        <time>2019-05-18T10:44:59Z</time>
      </trkpt>
      <trkpt lat="51.236116153833" lon="4.480479601456">
        <ele>0</ele>
        <time>2019-05-18T10:45:07Z</time>
      </trkpt>
      <trkpt lat="51.236106514648" lon="4.480794341801">
        <ele>0</ele>
        <time>2019-05-18T10:45:14Z</time>
      </trkpt>
      <trkpt lat="51.236083129147" lon="4.481106651395">
        <ele>2</ele>
        <time>2019-05-18T10:45:21Z</time>
      </trkpt>
      <trkpt lat="51.236075669256" lon="4.481413345116">
        <ele>7.2</ele>
        <time>2019-05-18T10:45:28Z</time>
      </trkpt>
      <trkpt lat="51.236068712279" lon="4.481714087688">
        <ele>11.4</ele>
        <time>2019-05-18T10:45:35Z</time>
      </trkpt>
      <trkpt lat="51.236061839121" lon="4.482034527725">
        <ele>14.8</ele>
        <time>2019-05-18T10:45:43Z</time>
      </trkpt>
      <trkpt lat="51.236059743646" lon="4.482338455419">
        <ele>16</ele>
        <time>2019-05-18T10:45:50Z</time>
      </trkpt>
      <trkpt lat="51.236055552696" lon="4.482628804435">
        <ele>15.2</ele>
        <time>2019-05-18T10:45:57Z</time>
      </trkpt>
      <trkpt lat="51.2360736576" lon="4.482931307206">
        <ele>10.2</ele>
        <time>2019-05-18T10:46:04Z</time>
      </trkpt>
      <trkpt lat="51.236070891573" lon="4.483221320946">
        <ele>5.8</ele>
        <time>2019-05-18T10:46:11Z</time>
      </trkpt>
      <trkpt lat="51.236065443338" lon="4.483546119571">
        <ele>2</ele>
        <time>2019-05-18T10:46:19Z</time>
      </trkpt>
      <trkpt lat="51.236064521329" lon="4.483877120802">
        <ele>0</ele>
        <time>2019-05-18T10:46:27Z</time>
      </trkpt>
      <trkpt lat="51.236059324551" lon="4.484181467591">
        <ele>0</ele>
        <time>2019-05-18T10:46:34Z</time>
      </trkpt>
      <trkpt lat="51.2360652757" lon="4.484499560696">
        <ele>0</ele>
        <time>2019-05-18T10:46:41Z</time>
      </trkpt>
      <trkpt lat="51.236019678164" lon="4.484782617459">
        <ele>0</ele>
        <time>2019-05-18T10:46:48Z</time>
      </trkpt>
      <trkpt lat="51.236000148337" lon="4.485093837406">
        <ele>0</ele>
        <time>2019-05-18T10:46:56Z</time>
      </trkpt>
      <trkpt lat="51.236050775013" lon="4.48537932492">
        <ele>0</ele>
        <time>2019-05-18T10:47:03Z</time>
      </trkpt>
      <trkpt lat="51.236068209365" lon="4.485696915111">
        <ele>0</ele>
        <time>2019-05-18T10:47:10Z</time>
      </trkpt>
      <trkpt lat="51.236076088351" lon="4.486007548325">
        <ele>0</ele>
        <time>2019-05-18T10:47:17Z</time>
      </trkpt>
      <trkpt lat="51.236078435283" lon="4.486315834607">
        <ele>0</ele>
        <time>2019-05-18T10:47:24Z</time>
      </trkpt>
      <trkpt lat="51.236083632061" lon="4.486605680709">
        <ele>2.2</ele>
        <time>2019-05-18T10:47:31Z</time>
      </trkpt>
      <trkpt lat="51.236095282902" lon="4.486899214847">
        <ele>3.6</ele>
        <time>2019-05-18T10:47:38Z</time>
      </trkpt>
      <trkpt lat="51.236096959282" lon="4.487212949364">
        <ele>3.2</ele>
        <time>2019-05-18T10:47:45Z</time>
      </trkpt>
      <trkpt lat="51.236110621779" lon="4.487534143772">
        <ele>1.8</ele>
        <time>2019-05-18T10:47:53Z</time>
      </trkpt>
      <trkpt lat="51.236122943172" lon="4.487836898">
        <ele>1.6</ele>
        <time>2019-05-18T10:48:00Z</time>
      </trkpt>
      <trkpt lat="51.236132247081" lon="4.488140406599">
        <ele>3</ele>
        <time>2019-05-18T10:48:07Z</time>
      </trkpt>
      <trkpt lat="51.236138114411" lon="4.488454560211">
        <ele>2.6</ele>
        <time>2019-05-18T10:48:15Z</time>
      </trkpt>
      <trkpt lat="51.236139623153" lon="4.488741807924">
        <ele>1.2</ele>
        <time>2019-05-18T10:48:22Z</time>
      </trkpt>
      <trkpt lat="51.236142975913" lon="4.489040371202">
        <ele>0.2</ele>
        <time>2019-05-18T10:48:29Z</time>
      </trkpt>
      <trkpt lat="51.236146663949" lon="4.489340107946">
        <ele>0.6</ele>
        <time>2019-05-18T10:48:36Z</time>
      </trkpt>
      <trkpt lat="51.236143981741" lon="4.489648813323">
        <ele>1.4</ele>
        <time>2019-05-18T10:48:43Z</time>
      </trkpt>
      <trkpt lat="51.236148591786" lon="4.48995165137">
        <ele>0.2</ele>
        <time>2019-05-18T10:48:52Z</time>
      </trkpt>
      <trkpt lat="51.236150435804" lon="4.489981742391">
        <ele>0</ele>
        <time>2019-05-18T10:48:53Z</time>
      </trkpt>
      <trkpt lat="51.236144484655" lon="4.490009318842">
        <ele>0</ele>
        <time>2019-05-18T10:48:54Z</time>
      </trkpt>
      <trkpt lat="51.236115818557" lon="4.489994818155">
        <ele>0</ele>
        <time>2019-05-18T10:49:45Z</time>
      </trkpt>
      <trkpt lat="51.236071729763" lon="4.490271756131">
        <ele>0</ele>
        <time>2019-05-18T10:49:53Z</time>
      </trkpt>
      <trkpt lat="51.236005345115" lon="4.490560428767">
        <ele>0.4</ele>
        <time>2019-05-18T10:50:00Z</time>
      </trkpt>
      <trkpt lat="51.235936529716" lon="4.490870139972">
        <ele>2.4</ele>
        <time>2019-05-18T10:50:07Z</time>
      </trkpt>
      <trkpt lat="51.235875258027" lon="4.491156633314">
        <ele>3</ele>
        <time>2019-05-18T10:50:14Z</time>
      </trkpt>
      <trkpt lat="51.235800072384" lon="4.491460728646">
        <ele>1.2</ele>
        <time>2019-05-18T10:50:21Z</time>
      </trkpt>
      <trkpt lat="51.235714577004" lon="4.491750826205">
        <ele>0.8</ele>
        <time>2019-05-18T10:50:28Z</time>
      </trkpt>
      <trkpt lat="51.235641235379" lon="4.492037571004">
        <ele>1.8</ele>
        <time>2019-05-18T10:50:35Z</time>
      </trkpt>
      <trkpt lat="51.235571497971" lon="4.492327584744">
        <ele>3.8</ele>
        <time>2019-05-18T10:50:42Z</time>
      </trkpt>
      <trkpt lat="51.23552296677" lon="4.492608462213">
        <ele>6.6</ele>
        <time>2019-05-18T10:50:48Z</time>
      </trkpt>
      <trkpt lat="51.23543411863" lon="4.492878946126">
        <ele>3.4</ele>
        <time>2019-05-18T10:50:55Z</time>
      </trkpt>
      <trkpt lat="51.235337978237" lon="4.493141383415">
        <ele>1.2</ele>
        <time>2019-05-18T10:51:02Z</time>
      </trkpt>
      <trkpt lat="51.235269162838" lon="4.493442377444">
        <ele>2.4</ele>
        <time>2019-05-18T10:51:10Z</time>
      </trkpt>
      <trkpt lat="51.235109403824" lon="4.493964653633">
        <ele>1.6</ele>
        <time>2019-05-18T10:51:24Z</time>
      </trkpt>
      <trkpt lat="51.235019549856" lon="4.494216529728">
        <ele>0.6</ele>
        <time>2019-05-18T10:51:31Z</time>
      </trkpt>
      <trkpt lat="51.234934892666" lon="4.494503609803">
        <ele>0.4</ele>
        <time>2019-05-18T10:51:38Z</time>
      </trkpt>
      <trkpt lat="51.234853839693" lon="4.49479052224">
        <ele>0.2</ele>
        <time>2019-05-18T10:51:45Z</time>
      </trkpt>
      <trkpt lat="51.234772032349" lon="4.495050025864">
        <ele>0</ele>
        <time>2019-05-18T10:51:52Z</time>
      </trkpt>
      <trkpt lat="51.234677987431" lon="4.495312463153">
        <ele>0</ele>
        <time>2019-05-18T10:51:59Z</time>
      </trkpt>
      <trkpt lat="51.23459257587" lon="4.495587305654">
        <ele>0</ele>
        <time>2019-05-18T10:52:07Z</time>
      </trkpt>
      <trkpt lat="51.234504482101" lon="4.495867093476">
        <ele>0</ele>
        <time>2019-05-18T10:52:15Z</time>
      </trkpt>
      <trkpt lat="51.234421417472" lon="4.496150485515">
        <ele>0</ele>
        <time>2019-05-18T10:52:23Z</time>
      </trkpt>
      <trkpt lat="51.234343717259" lon="4.496421891437">
        <ele>0</ele>
        <time>2019-05-18T10:52:31Z</time>
      </trkpt>
      <trkpt lat="51.234260233535" lon="4.496695141377">
        <ele>0</ele>
        <time>2019-05-18T10:52:38Z</time>
      </trkpt>
      <trkpt lat="51.234177923277" lon="4.496961685797">
        <ele>0</ele>
        <time>2019-05-18T10:52:45Z</time>
      </trkpt>
      <trkpt lat="51.23409888196" lon="4.49725647722">
        <ele>0</ele>
        <time>2019-05-18T10:52:53Z</time>
      </trkpt>
      <trkpt lat="51.234012129295" lon="4.497539450164">
        <ele>0</ele>
        <time>2019-05-18T10:53:01Z</time>
      </trkpt>
      <trkpt lat="51.233939039127" lon="4.497805659308">
        <ele>0</ele>
        <time>2019-05-18T10:53:08Z</time>
      </trkpt>
      <trkpt lat="51.233851699729" lon="4.498056529575">
        <ele>0</ele>
        <time>2019-05-18T10:53:15Z</time>
      </trkpt>
      <trkpt lat="51.233759247372" lon="4.498321229977">
        <ele>0</ele>
        <time>2019-05-18T10:53:23Z</time>
      </trkpt>
      <trkpt lat="51.233665621549" lon="4.498597748858">
        <ele>0.6</ele>
        <time>2019-05-18T10:53:31Z</time>
      </trkpt>
      <trkpt lat="51.233558081772" lon="4.498868819504">
        <ele>4.4</ele>
        <time>2019-05-18T10:53:39Z</time>
      </trkpt>
      <trkpt lat="51.233436879498" lon="4.499130837698">
        <ele>6.4</ele>
        <time>2019-05-18T10:53:47Z</time>
      </trkpt>
      <trkpt lat="51.23332271802" lon="4.499363603061">
        <ele>7.8</ele>
        <time>2019-05-18T10:53:54Z</time>
      </trkpt>
      <trkpt lat="51.233189278172" lon="4.499594608225">
        <ele>8.8</ele>
        <time>2019-05-18T10:54:01Z</time>
      </trkpt>
      <trkpt lat="51.233059442541" lon="4.499823098819">
        <ele>9.6</ele>
        <time>2019-05-18T10:54:08Z</time>
      </trkpt>
      <trkpt lat="51.232915190042" lon="4.500053433431">
        <ele>7.8</ele>
        <time>2019-05-18T10:54:15Z</time>
      </trkpt>
      <trkpt lat="51.232773955027" lon="4.500274464134">
        <ele>4.6</ele>
        <time>2019-05-18T10:54:22Z</time>
      </trkpt>
      <trkpt lat="51.23263959317" lon="4.500507061859">
        <ele>4.4</ele>
        <time>2019-05-18T10:54:29Z</time>
      </trkpt>
      <trkpt lat="51.232514367584" lon="4.500745946009">
        <ele>3.8</ele>
        <time>2019-05-18T10:54:36Z</time>
      </trkpt>
      <trkpt lat="51.232396685708" lon="4.500993463516">
        <ele>3.2</ele>
        <time>2019-05-18T10:54:43Z</time>
      </trkpt>
      <trkpt lat="51.23227414233" lon="4.501230587467">
        <ele>3.4</ele>
        <time>2019-05-18T10:54:50Z</time>
      </trkpt>
      <trkpt lat="51.232151263676" lon="4.501480535725">
        <ele>3.6</ele>
        <time>2019-05-18T10:54:57Z</time>
      </trkpt>
      <trkpt lat="51.23204783103" lon="4.501735261666">
        <ele>5.6</ele>
        <time>2019-05-18T10:55:04Z</time>
      </trkpt>
      <trkpt lat="51.231944482203" lon="4.501973894359">
        <ele>7.2</ele>
        <time>2019-05-18T10:55:11Z</time>
      </trkpt>
      <trkpt lat="51.23177541928" lon="4.502147064413">
        <ele>8.8</ele>
        <time>2019-05-18T10:55:18Z</time>
      </trkpt>
      <trkpt lat="51.231721439844" lon="4.502193164863">
        <ele>8</ele>
        <time>2019-05-18T10:55:21Z</time>
      </trkpt>
      <trkpt lat="51.231710627193" lon="4.502485022621">
        <ele>6.6</ele>
        <time>2019-05-18T10:55:29Z</time>
      </trkpt>
      <trkpt lat="51.231806851405" lon="4.502730277015">
        <ele>3.6</ele>
        <time>2019-05-18T10:55:36Z</time>
      </trkpt>
      <trkpt lat="51.23189779502" lon="4.50300310786">
        <ele>1</ele>
        <time>2019-05-18T10:55:43Z</time>
      </trkpt>
      <trkpt lat="51.231834595494" lon="4.503274262325">
        <ele>0.2</ele>
        <time>2019-05-18T10:55:51Z</time>
      </trkpt>
      <trkpt lat="51.231851275475" lon="4.503548098998">
        <ele>0</ele>
        <time>2019-05-18T10:55:59Z</time>
      </trkpt>
      <trkpt lat="51.231932999" lon="4.503848254837">
        <ele>0</ele>
        <time>2019-05-18T10:56:07Z</time>
      </trkpt>
      <trkpt lat="51.231949176067" lon="4.503953950596">
        <ele>0</ele>
        <time>2019-05-18T10:56:10Z</time>
      </trkpt>
      <trkpt lat="51.231886479455" lon="4.504017820674">
        <ele>0</ele>
        <time>2019-05-18T10:56:13Z</time>
      </trkpt>
      <trkpt lat="51.231835182227" lon="4.50399384844">
        <ele>0</ele>
        <time>2019-05-18T10:56:15Z</time>
      </trkpt>
      <trkpt lat="51.231702832026" lon="4.503794275401">
        <ele>0</ele>
        <time>2019-05-18T10:56:22Z</time>
      </trkpt>
      <trkpt lat="51.23154659341" lon="4.503895696391">
        <ele>0</ele>
        <time>2019-05-18T10:56:29Z</time>
      </trkpt>
      <trkpt lat="51.231465791894" lon="4.504163581915">
        <ele>0</ele>
        <time>2019-05-18T10:56:36Z</time>
      </trkpt>
      <trkpt lat="51.231388426957" lon="4.50443306">
        <ele>0.8</ele>
        <time>2019-05-18T10:56:43Z</time>
      </trkpt>
      <trkpt lat="51.2313211203" lon="4.504704298284">
        <ele>3</ele>
        <time>2019-05-18T10:56:50Z</time>
      </trkpt>
      <trkpt lat="51.231246689028" lon="4.504997664784">
        <ele>5.2</ele>
        <time>2019-05-18T10:56:58Z</time>
      </trkpt>
      <trkpt lat="51.23119706818" lon="4.505431176652">
        <ele>12.4</ele>
        <time>2019-05-18T10:57:09Z</time>
      </trkpt>
      <trkpt lat="51.231106627479" lon="4.505679867625">
        <ele>13.4</ele>
        <time>2019-05-18T10:57:16Z</time>
      </trkpt>
      <trkpt lat="51.231003194833" lon="4.505965019863">
        <ele>13.4</ele>
        <time>2019-05-18T10:57:24Z</time>
      </trkpt>
      <trkpt lat="51.230926919543" lon="4.506247406074">
        <ele>12.4</ele>
        <time>2019-05-18T10:57:31Z</time>
      </trkpt>
      <trkpt lat="51.230850308977" lon="4.506510681553">
        <ele>11.8</ele>
        <time>2019-05-18T10:57:37Z</time>
      </trkpt>
      <trkpt lat="51.230772524945" lon="4.506776974516">
        <ele>11.8</ele>
        <time>2019-05-18T10:57:43Z</time>
      </trkpt>
      <trkpt lat="51.230684179719" lon="4.507082913866">
        <ele>8.2</ele>
        <time>2019-05-18T10:57:50Z</time>
      </trkpt>
      <trkpt lat="51.230650400662" lon="4.507293718651">
        <ele>0.2</ele>
        <time>2019-05-18T10:57:55Z</time>
      </trkpt>
      <trkpt lat="51.230581417625" lon="4.507567303867">
        <ele>0</ele>
        <time>2019-05-18T10:58:02Z</time>
      </trkpt>
      <trkpt lat="51.230514278606" lon="4.507838542151">
        <ele>0</ele>
        <time>2019-05-18T10:58:09Z</time>
      </trkpt>
      <trkpt lat="51.230465412129" lon="4.508123526751">
        <ele>0</ele>
        <time>2019-05-18T10:58:16Z</time>
      </trkpt>
      <trkpt lat="51.230405230087" lon="4.508395854682">
        <ele>1</ele>
        <time>2019-05-18T10:58:23Z</time>
      </trkpt>
      <trkpt lat="51.230343539303" lon="4.50868938882">
        <ele>6.2</ele>
        <time>2019-05-18T10:58:31Z</time>
      </trkpt>
      <trkpt lat="51.230294253731" lon="4.509003290975">
        <ele>6.4</ele>
        <time>2019-05-18T10:58:39Z</time>
      </trkpt>
      <trkpt lat="51.23023231149" lon="4.509301435158">
        <ele>7</ele>
        <time>2019-05-18T10:58:47Z</time>
      </trkpt>
      <trkpt lat="51.23017447638" lon="4.509584408102">
        <ele>7.4</ele>
        <time>2019-05-18T10:58:54Z</time>
      </trkpt>
      <trkpt lat="51.230138518029" lon="4.509883390475">
        <ele>8.6</ele>
        <time>2019-05-18T10:59:02Z</time>
      </trkpt>
      <trkpt lat="51.230087723715" lon="4.510171979292">
        <ele>8.6</ele>
        <time>2019-05-18T10:59:09Z</time>
      </trkpt>
      <trkpt lat="51.230044976025" lon="4.510451348019">
        <ele>10.6</ele>
        <time>2019-05-18T10:59:16Z</time>
      </trkpt>
      <trkpt lat="51.229985464535" lon="4.510724262683">
        <ele>8.6</ele>
        <time>2019-05-18T10:59:23Z</time>
      </trkpt>
      <trkpt lat="51.229928719072" lon="4.511028441834">
        <ele>7.2</ele>
        <time>2019-05-18T10:59:31Z</time>
      </trkpt>
      <trkpt lat="51.229815814879" lon="4.511304793077">
        <ele>4.6</ele>
        <time>2019-05-18T10:59:39Z</time>
      </trkpt>
      <trkpt lat="51.229757141579" lon="4.511593884808">
        <ele>3.4</ele>
        <time>2019-05-18T10:59:46Z</time>
      </trkpt>
      <trkpt lat="51.229698049184" lon="4.511890268792">
        <ele>3.8</ele>
        <time>2019-05-18T10:59:53Z</time>
      </trkpt>
      <trkpt lat="51.229630071975" lon="4.51216787732">
        <ele>3.8</ele>
        <time>2019-05-18T11:00:00Z</time>
      </trkpt>
      <trkpt lat="51.229564944612" lon="4.512438528871">
        <ele>4.8</ele>
        <time>2019-05-18T11:00:07Z</time>
      </trkpt>
      <trkpt lat="51.229495877756" lon="4.512736924511">
        <ele>9.6</ele>
        <time>2019-05-18T11:00:15Z</time>
      </trkpt>
      <trkpt lat="51.229429996022" lon="4.513031883572">
        <ele>7.8</ele>
        <time>2019-05-18T11:00:22Z</time>
      </trkpt>
      <trkpt lat="51.229356486759" lon="4.513327177909">
        <ele>7.8</ele>
        <time>2019-05-18T11:00:29Z</time>
      </trkpt>
      <trkpt lat="51.229305608626" lon="4.513619790038">
        <ele>9.4</ele>
        <time>2019-05-18T11:00:36Z</time>
      </trkpt>
      <trkpt lat="51.229250371905" lon="4.513915671108">
        <ele>10.8</ele>
        <time>2019-05-18T11:00:43Z</time>
      </trkpt>
      <trkpt lat="51.229169821846" lon="4.514204595201">
        <ele>12</ele>
        <time>2019-05-18T11:00:51Z</time>
      </trkpt>
      <trkpt lat="51.229050966504" lon="4.514448005577">
        <ele>13.6</ele>
        <time>2019-05-18T11:00:58Z</time>
      </trkpt>
      <trkpt lat="51.228964213839" lon="4.514708179753">
        <ele>16.6</ele>
        <time>2019-05-18T11:01:06Z</time>
      </trkpt>
      <trkpt lat="51.228889195834" lon="4.515004396099">
        <ele>28.6</ele>
        <time>2019-05-18T11:01:16Z</time>
      </trkpt>
      <trkpt lat="51.228801437341" lon="4.51529767878">
        <ele>43.4</ele>
        <time>2019-05-18T11:01:26Z</time>
      </trkpt>
      <trkpt lat="51.228717115427" lon="4.515562882096">
        <ele>50.6</ele>
        <time>2019-05-18T11:01:33Z</time>
      </trkpt>
      <trkpt lat="51.228677301402" lon="4.515846777049">
        <ele>57.8</ele>
        <time>2019-05-18T11:01:41Z</time>
      </trkpt>
      <trkpt lat="51.228654502634" lon="4.516160763023">
        <ele>59.2</ele>
        <time>2019-05-18T11:01:48Z</time>
      </trkpt>
      <trkpt lat="51.228681576171" lon="4.516494362643">
        <ele>61.8</ele>
        <time>2019-05-18T11:01:55Z</time>
      </trkpt>
      <trkpt lat="51.228625249803" lon="4.516780688347">
        <ele>54</ele>
        <time>2019-05-18T11:02:00Z</time>
      </trkpt>
      <trkpt lat="51.228507819384" lon="4.517016974108">
        <ele>49.6</ele>
        <time>2019-05-18T11:02:05Z</time>
      </trkpt>
      <trkpt lat="51.228401620711" lon="4.517309921513">
        <ele>40.2</ele>
        <time>2019-05-18T11:02:11Z</time>
      </trkpt>
      <trkpt lat="51.228314113675" lon="4.517607646601">
        <ele>32.8</ele>
        <time>2019-05-18T11:02:18Z</time>
      </trkpt>
      <trkpt lat="51.228186960252" lon="4.51785583466">
        <ele>27.6</ele>
        <time>2019-05-18T11:02:25Z</time>
      </trkpt>
      <trkpt lat="51.228059052458" lon="4.518067812911">
        <ele>27.4</ele>
        <time>2019-05-18T11:02:32Z</time>
      </trkpt>
      <trkpt lat="51.22779653135" lon="4.518477101088">
        <ele>40.2</ele>
        <time>2019-05-18T11:02:49Z</time>
      </trkpt>
      <trkpt lat="51.227691338505" lon="4.518754039064">
        <ele>46.6</ele>
        <time>2019-05-18T11:02:57Z</time>
      </trkpt>
      <trkpt lat="51.227617913061" lon="4.519070288151">
        <ele>44</ele>
        <time>2019-05-18T11:03:03Z</time>
      </trkpt>
      <trkpt lat="51.227479360254" lon="4.519310597224">
        <ele>39.8</ele>
        <time>2019-05-18T11:03:11Z</time>
      </trkpt>
      <trkpt lat="51.227313650091" lon="4.519492484454">
        <ele>47.4</ele>
        <time>2019-05-18T11:03:20Z</time>
      </trkpt>
      <trkpt lat="51.227291689513" lon="4.519543781682">
        <ele>48</ele>
        <time>2019-05-18T11:03:22Z</time>
      </trkpt>
      <trkpt lat="51.227290516047" lon="4.519842093503">
        <ele>44.8</ele>
        <time>2019-05-18T11:03:30Z</time>
      </trkpt>
      <trkpt lat="51.227296383377" lon="4.520164964291">
        <ele>40.8</ele>
        <time>2019-05-18T11:03:38Z</time>
      </trkpt>
      <trkpt lat="51.227304262363" lon="4.520475597505">
        <ele>38.6</ele>
        <time>2019-05-18T11:03:45Z</time>
      </trkpt>
      <trkpt lat="51.227345333673" lon="4.520796037542">
        <ele>36.2</ele>
        <time>2019-05-18T11:03:52Z</time>
      </trkpt>
      <trkpt lat="51.227348267338" lon="4.521108933869">
        <ele>33.6</ele>
        <time>2019-05-18T11:03:58Z</time>
      </trkpt>
      <trkpt lat="51.22737073083" lon="4.521398444695">
        <ele>31.2</ele>
        <time>2019-05-18T11:04:05Z</time>
      </trkpt>
      <trkpt lat="51.227379364187" lon="4.521687536426">
        <ele>29</ele>
        <time>2019-05-18T11:04:12Z</time>
      </trkpt>
      <trkpt lat="51.227387746087" lon="4.521988195179">
        <ele>31.4</ele>
        <time>2019-05-18T11:04:19Z</time>
      </trkpt>
      <trkpt lat="51.227469888707" lon="4.522288518656">
        <ele>27.6</ele>
        <time>2019-05-18T11:04:26Z</time>
      </trkpt>
      <trkpt lat="51.227486820145" lon="4.522607030856">
        <ele>24.6</ele>
        <time>2019-05-18T11:04:33Z</time>
      </trkpt>
      <trkpt lat="51.227492016923" lon="4.522897631329">
        <ele>22.4</ele>
        <time>2019-05-18T11:04:40Z</time>
      </trkpt>
      <trkpt lat="51.227492352199" lon="4.523189824363">
        <ele>19.6</ele>
        <time>2019-05-18T11:04:47Z</time>
      </trkpt>
      <trkpt lat="51.22752998693" lon="4.523474976601">
        <ele>17.2</ele>
        <time>2019-05-18T11:04:54Z</time>
      </trkpt>
      <trkpt lat="51.227566112919" lon="4.523754932061">
        <ele>15.6</ele>
        <time>2019-05-18T11:05:01Z</time>
      </trkpt>
      <trkpt lat="51.227646411521" lon="4.524036396263">
        <ele>12</ele>
        <time>2019-05-18T11:05:08Z</time>
      </trkpt>
      <trkpt lat="51.227766775605" lon="4.524285673969">
        <ele>8.4</ele>
        <time>2019-05-18T11:05:14Z</time>
      </trkpt>
      <trkpt lat="51.227860820523" lon="4.524584907799">
        <ele>10.4</ele>
        <time>2019-05-18T11:05:21Z</time>
      </trkpt>
      <trkpt lat="51.227958134382" lon="4.52484550107">
        <ele>13.2</ele>
        <time>2019-05-18T11:05:27Z</time>
      </trkpt>
      <trkpt lat="51.228047653074" lon="4.525116152621">
        <ele>10.4</ele>
        <time>2019-05-18T11:05:34Z</time>
      </trkpt>
      <trkpt lat="51.228126610572" lon="4.525418152478">
        <ele>10.8</ele>
        <time>2019-05-18T11:05:42Z</time>
      </trkpt>
      <trkpt lat="51.228200622749" lon="4.525691318599">
        <ele>11</ele>
        <time>2019-05-18T11:05:49Z</time>
      </trkpt>
      <trkpt lat="51.228257871126" lon="4.525998682872">
        <ele>10.6</ele>
        <time>2019-05-18T11:05:56Z</time>
      </trkpt>
      <trkpt lat="51.228238592756" lon="4.526316608339">
        <ele>11.4</ele>
        <time>2019-05-18T11:06:02Z</time>
      </trkpt>
      <trkpt lat="51.228275556935" lon="4.526621709499">
        <ele>10.2</ele>
        <time>2019-05-18T11:06:09Z</time>
      </trkpt>
      <trkpt lat="51.22832375286" lon="4.526922284433">
        <ele>7.6</ele>
        <time>2019-05-18T11:06:17Z</time>
      </trkpt>
      <trkpt lat="51.228345210524" lon="4.527238282063">
        <ele>7.6</ele>
        <time>2019-05-18T11:06:25Z</time>
      </trkpt>
      <trkpt lat="51.228358621564" lon="4.527528379622">
        <ele>5</ele>
        <time>2019-05-18T11:06:32Z</time>
      </trkpt>
      <trkpt lat="51.228392903535" lon="4.527848149107">
        <ele>5.4</ele>
        <time>2019-05-18T11:06:40Z</time>
      </trkpt>
      <trkpt lat="51.228430035352" lon="4.527972536503">
        <ele>7.4</ele>
        <time>2019-05-18T11:06:44Z</time>
      </trkpt>
      <trkpt lat="51.228437495243" lon="4.528278392034">
        <ele>13.2</ele>
        <time>2019-05-18T11:06:52Z</time>
      </trkpt>
      <trkpt lat="51.228428442791" lon="4.528586091583">
        <ele>17.6</ele>
        <time>2019-05-18T11:06:59Z</time>
      </trkpt>
      <trkpt lat="51.228412601" lon="4.528899993738">
        <ele>17.4</ele>
        <time>2019-05-18T11:07:06Z</time>
      </trkpt>
      <trkpt lat="51.228465826065" lon="4.52920660364">
        <ele>18.4</ele>
        <time>2019-05-18T11:07:12Z</time>
      </trkpt>
      <trkpt lat="51.228447385885" lon="4.529272485374">
        <ele>18.6</ele>
        <time>2019-05-18T11:07:13Z</time>
      </trkpt>
      <trkpt lat="51.228429197162" lon="4.529287237518">
        <ele>18.6</ele>
        <time>2019-05-18T11:07:15Z</time>
      </trkpt>
      <trkpt lat="51.228395753381" lon="4.529316574168">
        <ele>19.8</ele>
        <time>2019-05-18T11:07:17Z</time>
      </trkpt>
      <trkpt lat="51.228389047861" lon="4.529616646188">
        <ele>16.8</ele>
        <time>2019-05-18T11:07:24Z</time>
      </trkpt>
      <trkpt lat="51.228370440043" lon="4.529942450641">
        <ele>13</ele>
        <time>2019-05-18T11:07:31Z</time>
      </trkpt>
      <trkpt lat="51.228330877475" lon="4.53024009191">
        <ele>9</ele>
        <time>2019-05-18T11:07:38Z</time>
      </trkpt>
      <trkpt lat="51.228289638527" lon="4.530523316311">
        <ele>5.2</ele>
        <time>2019-05-18T11:07:45Z</time>
      </trkpt>
      <trkpt lat="51.228194503962" lon="4.530796566251">
        <ele>2.4</ele>
        <time>2019-05-18T11:07:52Z</time>
      </trkpt>
      <trkpt lat="51.228094675533" lon="4.531041988283">
        <ele>1</ele>
        <time>2019-05-18T11:07:59Z</time>
      </trkpt>
      <trkpt lat="51.227934665062" lon="4.531211218844">
        <ele>3.2</ele>
        <time>2019-05-18T11:08:07Z</time>
      </trkpt>
      <trkpt lat="51.227893342295" lon="4.531242818607">
        <ele>4.4</ele>
        <time>2019-05-18T11:08:08Z</time>
      </trkpt>
      <trkpt lat="51.227821006498" lon="4.531732405386">
        <ele>9.6</ele>
        <time>2019-05-18T11:08:24Z</time>
      </trkpt>
      <trkpt lat="51.227855037012" lon="4.532022502945">
        <ele>10</ele>
        <time>2019-05-18T11:08:31Z</time>
      </trkpt>
      <trkpt lat="51.227824107801" lon="4.532323161698">
        <ele>11.2</ele>
        <time>2019-05-18T11:08:39Z</time>
      </trkpt>
      <trkpt lat="51.22771271235" lon="4.532606972832">
        <ele>13.6</ele>
        <time>2019-05-18T11:08:46Z</time>
      </trkpt>
      <trkpt lat="51.2276247024" lon="4.532881144781">
        <ele>15.2</ele>
        <time>2019-05-18T11:08:53Z</time>
      </trkpt>
      <trkpt lat="51.227534596975" lon="4.533154981454">
        <ele>16</ele>
        <time>2019-05-18T11:09:00Z</time>
      </trkpt>
      <trkpt lat="51.22744197698" lon="4.533433763448">
        <ele>14.4</ele>
        <time>2019-05-18T11:09:07Z</time>
      </trkpt>
      <trkpt lat="51.22735983436" lon="4.533700056411">
        <ele>11.6</ele>
        <time>2019-05-18T11:09:14Z</time>
      </trkpt>
      <trkpt lat="51.227273584609" lon="4.53397674293">
        <ele>11.6</ele>
        <time>2019-05-18T11:09:21Z</time>
      </trkpt>
      <trkpt lat="51.227190436161" lon="4.534247562119">
        <ele>13.4</ele>
        <time>2019-05-18T11:09:28Z</time>
      </trkpt>
      <trkpt lat="51.227102174754" lon="4.534545790121">
        <ele>14.8</ele>
        <time>2019-05-18T11:09:36Z</time>
      </trkpt>
      <trkpt lat="51.227013242795" lon="4.534825075029">
        <ele>15</ele>
        <time>2019-05-18T11:09:43Z</time>
      </trkpt>
      <trkpt lat="51.226885083544" lon="4.535050296682">
        <ele>15.4</ele>
        <time>2019-05-18T11:09:51Z</time>
      </trkpt>
      <trkpt lat="51.226783830192" lon="4.53528851028">
        <ele>15.6</ele>
        <time>2019-05-18T11:09:58Z</time>
      </trkpt>
      <trkpt lat="51.226698334812" lon="4.535550277017">
        <ele>17.8</ele>
        <time>2019-05-18T11:10:05Z</time>
      </trkpt>
      <trkpt lat="51.226625244644" lon="4.535813468677">
        <ele>19.2</ele>
        <time>2019-05-18T11:10:12Z</time>
      </trkpt>
      <trkpt lat="51.226549388449" lon="4.536092669766">
        <ele>22.4</ele>
        <time>2019-05-18T11:10:19Z</time>
      </trkpt>
      <trkpt lat="51.226461629956" lon="4.536386120085">
        <ele>24.2</ele>
        <time>2019-05-18T11:10:27Z</time>
      </trkpt>
      <trkpt lat="51.226379068241" lon="4.536652915962">
        <ele>25.4</ele>
        <time>2019-05-18T11:10:34Z</time>
      </trkpt>
      <trkpt lat="51.226295919793" lon="4.536912587224">
        <ele>26</ele>
        <time>2019-05-18T11:10:41Z</time>
      </trkpt>
      <trkpt lat="51.226196845735" lon="4.5371895252">
        <ele>24.6</ele>
        <time>2019-05-18T11:10:49Z</time>
      </trkpt>
      <trkpt lat="51.226104477197" lon="4.53744014401">
        <ele>22</ele>
        <time>2019-05-18T11:10:56Z</time>
      </trkpt>
      <trkpt lat="51.226009761727" lon="4.537693528847">
        <ele>19.4</ele>
        <time>2019-05-18T11:11:03Z</time>
      </trkpt>
      <trkpt lat="51.225899958837" lon="4.537972813755">
        <ele>16.2</ele>
        <time>2019-05-18T11:11:11Z</time>
      </trkpt>
      <trkpt lat="51.225820582244" lon="4.538235167225">
        <ele>15.6</ele>
        <time>2019-05-18T11:11:18Z</time>
      </trkpt>
      <trkpt lat="51.225721592005" lon="4.538495089944">
        <ele>14.2</ele>
        <time>2019-05-18T11:11:25Z</time>
      </trkpt>
      <trkpt lat="51.225617740264" lon="4.538761466726">
        <ele>12</ele>
        <time>2019-05-18T11:11:32Z</time>
      </trkpt>
      <trkpt lat="51.225537022567" lon="4.539024658386">
        <ele>11</ele>
        <time>2019-05-18T11:11:39Z</time>
      </trkpt>
      <trkpt lat="51.22546301039" lon="4.539287347132">
        <ele>12</ele>
        <time>2019-05-18T11:11:46Z</time>
      </trkpt>
      <trkpt lat="51.225393021525" lon="4.539565542393">
        <ele>12.4</ele>
        <time>2019-05-18T11:11:53Z</time>
      </trkpt>
      <trkpt lat="51.225337030433" lon="4.539852035735">
        <ele>14.4</ele>
        <time>2019-05-18T11:12:00Z</time>
      </trkpt>
      <trkpt lat="51.225294115105" lon="4.54013660124">
        <ele>16.2</ele>
        <time>2019-05-18T11:12:07Z</time>
      </trkpt>
      <trkpt lat="51.225261593333" lon="4.540419490365">
        <ele>16.2</ele>
        <time>2019-05-18T11:12:14Z</time>
      </trkpt>
      <trkpt lat="51.22519981873" lon="4.540689387545">
        <ele>16.2</ele>
        <time>2019-05-18T11:12:21Z</time>
      </trkpt>
      <trkpt lat="51.225121783241" lon="4.540969845919">
        <ele>15.6</ele>
        <time>2019-05-18T11:12:28Z</time>
      </trkpt>
      <trkpt lat="51.22502798978" lon="4.541243682592">
        <ele>14.4</ele>
        <time>2019-05-18T11:12:35Z</time>
      </trkpt>
      <trkpt lat="51.224926317333" lon="4.541513915048">
        <ele>11.6</ele>
        <time>2019-05-18T11:12:42Z</time>
      </trkpt>
      <trkpt lat="51.224830763673" lon="4.541757912157">
        <ele>10.2</ele>
        <time>2019-05-18T11:12:49Z</time>
      </trkpt>
      <trkpt lat="51.224743508094" lon="4.54204515987">
        <ele>11.4</ele>
        <time>2019-05-18T11:12:57Z</time>
      </trkpt>
      <trkpt lat="51.224673854505" lon="4.542317655439">
        <ele>13</ele>
        <time>2019-05-18T11:13:05Z</time>
      </trkpt>
      <trkpt lat="51.224585341641" lon="4.54260255622">
        <ele>14</ele>
        <time>2019-05-18T11:13:13Z</time>
      </trkpt>
      <trkpt lat="51.224505294496" lon="4.542863149491">
        <ele>15.8</ele>
        <time>2019-05-18T11:13:20Z</time>
      </trkpt>
      <trkpt lat="51.224432371966" lon="4.543163472968">
        <ele>17.2</ele>
        <time>2019-05-18T11:13:28Z</time>
      </trkpt>
      <trkpt lat="51.224358611246" lon="4.543429179198">
        <ele>17</ele>
        <time>2019-05-18T11:13:35Z</time>
      </trkpt>
      <trkpt lat="51.224267248536" lon="4.543696813265">
        <ele>15.2</ele>
        <time>2019-05-18T11:13:42Z</time>
      </trkpt>
      <trkpt lat="51.224132048489" lon="4.543909964982">
        <ele>14.6</ele>
        <time>2019-05-18T11:13:50Z</time>
      </trkpt>
      <trkpt lat="51.22395678296" lon="4.544031586351">
        <ele>15.6</ele>
        <time>2019-05-18T11:13:59Z</time>
      </trkpt>
      <trkpt lat="51.22379501229" lon="4.54424289405">
        <ele>20.4</ele>
        <time>2019-05-18T11:14:11Z</time>
      </trkpt>
      <trkpt lat="51.223607760644" lon="4.544343393031">
        <ele>25.4</ele>
        <time>2019-05-18T11:14:19Z</time>
      </trkpt>
      <trkpt lat="51.223432495115" lon="4.544437437949">
        <ele>32.2</ele>
        <time>2019-05-18T11:14:25Z</time>
      </trkpt>
      <trkpt lat="51.223258822147" lon="4.544535589998">
        <ele>34.4</ele>
        <time>2019-05-18T11:14:31Z</time>
      </trkpt>
      <trkpt lat="51.223096967658" lon="4.544678669031">
        <ele>35.4</ele>
        <time>2019-05-18T11:14:37Z</time>
      </trkpt>
      <trkpt lat="51.222902926673" lon="4.544781514944">
        <ele>34.2</ele>
        <time>2019-05-18T11:14:45Z</time>
      </trkpt>
      <trkpt lat="51.222713579552" lon="4.544897017526">
        <ele>27.6</ele>
        <time>2019-05-18T11:14:53Z</time>
      </trkpt>
      <trkpt lat="51.222532195236" lon="4.54504504188">
        <ele>26.4</ele>
        <time>2019-05-18T11:15:00Z</time>
      </trkpt>
      <trkpt lat="51.222334130939" lon="4.545146798146">
        <ele>25.2</ele>
        <time>2019-05-18T11:15:07Z</time>
      </trkpt>
      <trkpt lat="51.222143526533" lon="4.545215110631">
        <ele>20.6</ele>
        <time>2019-05-18T11:15:13Z</time>
      </trkpt>
      <trkpt lat="51.22195602343" lon="4.545321560761">
        <ele>16.2</ele>
        <time>2019-05-18T11:15:21Z</time>
      </trkpt>
      <trkpt lat="51.221775058209" lon="4.545432201841">
        <ele>15</ele>
        <time>2019-05-18T11:15:29Z</time>
      </trkpt>
      <trkpt lat="51.221598703033" lon="4.545543848749">
        <ele>16</ele>
        <time>2019-05-18T11:15:36Z</time>
      </trkpt>
      <trkpt lat="51.221413127767" lon="4.545643844816">
        <ele>14.8</ele>
        <time>2019-05-18T11:15:43Z</time>
      </trkpt>
      <trkpt lat="51.221224786474" lon="4.545744008521">
        <ele>13.8</ele>
        <time>2019-05-18T11:15:50Z</time>
      </trkpt>
      <trkpt lat="51.221034349706" lon="4.545845848606">
        <ele>12</ele>
        <time>2019-05-18T11:15:56Z</time>
      </trkpt>
      <trkpt lat="51.220851959562" lon="4.545940312619">
        <ele>10.6</ele>
        <time>2019-05-18T11:16:03Z</time>
      </trkpt>
      <trkpt lat="51.22067023997" lon="4.54602069504">
        <ele>10.2</ele>
        <time>2019-05-18T11:16:10Z</time>
      </trkpt>
      <trkpt lat="51.220483491238" lon="4.546141226762">
        <ele>10.8</ele>
        <time>2019-05-18T11:16:18Z</time>
      </trkpt>
      <trkpt lat="51.220366312276" lon="4.546192021076">
        <ele>13.2</ele>
        <time>2019-05-18T11:16:23Z</time>
      </trkpt>
      <trkpt lat="51.220351979227" lon="4.546151536499">
        <ele>13.6</ele>
        <time>2019-05-18T11:16:25Z</time>
      </trkpt>
      <trkpt lat="51.220381651153" lon="4.546037207383">
        <ele>13.2</ele>
        <time>2019-05-18T11:16:29Z</time>
      </trkpt>
      <trkpt lat="51.220334628694" lon="4.546008876561">
        <ele>12.4</ele>
        <time>2019-05-18T11:16:32Z</time>
      </trkpt>
      <trkpt lat="51.220146287401" lon="4.54598130011">
        <ele>13</ele>
        <time>2019-05-18T11:16:39Z</time>
      </trkpt>
      <trkpt lat="51.219944032154" lon="4.545924219371">
        <ele>11.6</ele>
        <time>2019-05-18T11:16:46Z</time>
      </trkpt>
      <trkpt lat="51.219743620925" lon="4.545845680968">
        <ele>8.6</ele>
        <time>2019-05-18T11:16:53Z</time>
      </trkpt>
      <trkpt lat="51.219543377334" lon="4.545812572463">
        <ele>8.2</ele>
        <time>2019-05-18T11:17:00Z</time>
      </trkpt>
      <trkpt lat="51.219359897543" lon="4.545759095941">
        <ele>8.6</ele>
        <time>2019-05-18T11:17:07Z</time>
      </trkpt>
      <trkpt lat="51.219155295364" lon="4.545703356306">
        <ele>10.4</ele>
        <time>2019-05-18T11:17:15Z</time>
      </trkpt>
      <trkpt lat="51.218972486125" lon="4.545616436003">
        <ele>6.4</ele>
        <time>2019-05-18T11:17:22Z</time>
      </trkpt>
      <trkpt lat="51.21879520894" lon="4.545548291156">
        <ele>4.4</ele>
        <time>2019-05-18T11:17:29Z</time>
      </trkpt>
      <trkpt lat="51.218601335593" lon="4.545480481585">
        <ele>3.2</ele>
        <time>2019-05-18T11:17:36Z</time>
      </trkpt>
      <trkpt lat="51.218404444762" lon="4.54543312385">
        <ele>5.6</ele>
        <time>2019-05-18T11:17:44Z</time>
      </trkpt>
      <trkpt lat="51.218215852012" lon="4.545314017051">
        <ele>3.4</ele>
        <time>2019-05-18T11:17:51Z</time>
      </trkpt>
      <trkpt lat="51.218090542607" lon="4.545074043254">
        <ele>1.2</ele>
        <time>2019-05-18T11:17:58Z</time>
      </trkpt>
      <trkpt lat="51.217932376154" lon="4.545141769006">
        <ele>0.6</ele>
        <time>2019-05-18T11:18:06Z</time>
      </trkpt>
      <trkpt lat="51.217880995107" lon="4.545454581514">
        <ele>2.6</ele>
        <time>2019-05-18T11:18:13Z</time>
      </trkpt>
      <trkpt lat="51.217775299348" lon="4.545693633302">
        <ele>4.2</ele>
        <time>2019-05-18T11:18:20Z</time>
      </trkpt>
      <trkpt lat="51.217637752369" lon="4.54588407007">
        <ele>5.2</ele>
        <time>2019-05-18T11:18:27Z</time>
      </trkpt>
      <trkpt lat="51.217548066039" lon="4.546151117404">
        <ele>5.6</ele>
        <time>2019-05-18T11:18:34Z</time>
      </trkpt>
      <trkpt lat="51.217475814061" lon="4.546429983217">
        <ele>5.4</ele>
        <time>2019-05-18T11:18:41Z</time>
      </trkpt>
      <trkpt lat="51.217452931474" lon="4.546743969191">
        <ele>4.6</ele>
        <time>2019-05-18T11:18:49Z</time>
      </trkpt>
      <trkpt lat="51.217423846281" lon="4.547063068124">
        <ele>4.8</ele>
        <time>2019-05-18T11:18:57Z</time>
      </trkpt>
      <trkpt lat="51.21737866784" lon="4.547374539528">
        <ele>3.8</ele>
        <time>2019-05-18T11:19:05Z</time>
      </trkpt>
      <trkpt lat="51.217346062249" lon="4.547682909629">
        <ele>2.2</ele>
        <time>2019-05-18T11:19:13Z</time>
      </trkpt>
      <trkpt lat="51.217318234341" lon="4.547975689396">
        <ele>2.6</ele>
        <time>2019-05-18T11:19:20Z</time>
      </trkpt>
      <trkpt lat="51.217261069783" lon="4.548266038412">
        <ele>2.4</ele>
        <time>2019-05-18T11:19:27Z</time>
      </trkpt>
      <trkpt lat="51.217191919108" lon="4.548578096549">
        <ele>3.8</ele>
        <time>2019-05-18T11:19:35Z</time>
      </trkpt>
      <trkpt lat="51.217089827566" lon="4.549017056652">
        <ele>1.6</ele>
        <time>2019-05-18T11:19:46Z</time>
      </trkpt>
      <trkpt lat="51.217039787623" lon="4.549314446464">
        <ele>3</ele>
        <time>2019-05-18T11:19:53Z</time>
      </trkpt>
      <trkpt lat="51.2170048351" lon="4.549608232059">
        <ele>3</ele>
        <time>2019-05-18T11:20:00Z</time>
      </trkpt>
      <trkpt lat="51.216977342468" lon="4.549895060677">
        <ele>3.8</ele>
        <time>2019-05-18T11:20:07Z</time>
      </trkpt>
      <trkpt lat="51.216915819322" lon="4.550182811304">
        <ele>3</ele>
        <time>2019-05-18T11:20:15Z</time>
      </trkpt>
      <trkpt lat="51.216915400227" lon="4.550207034995">
        <ele>3.4</ele>
        <time>2019-05-18T11:20:16Z</time>
      </trkpt>
      <trkpt lat="51.216954795157" lon="4.550512639069">
        <ele>4.2</ele>
        <time>2019-05-18T11:20:24Z</time>
      </trkpt>
      <trkpt lat="51.216939959194" lon="4.550810699433">
        <ele>5.4</ele>
        <time>2019-05-18T11:20:31Z</time>
      </trkpt>
      <trkpt lat="51.216925458507" lon="4.551131726203">
        <ele>6.8</ele>
        <time>2019-05-18T11:20:38Z</time>
      </trkpt>
      <trkpt lat="51.216918333892" lon="4.551426266169">
        <ele>7.6</ele>
        <time>2019-05-18T11:20:45Z</time>
      </trkpt>
      <trkpt lat="51.216903078834" lon="4.551726589646">
        <ele>7</ele>
        <time>2019-05-18T11:20:52Z</time>
      </trkpt>
      <trkpt lat="51.216884051921" lon="4.552048203149">
        <ele>5.2</ele>
        <time>2019-05-18T11:21:00Z</time>
      </trkpt>
      <trkpt lat="51.216895954219" lon="4.552334947948">
        <ele>5.4</ele>
        <time>2019-05-18T11:21:07Z</time>
      </trkpt>
      <trkpt lat="51.216896038038" lon="4.552656309994">
        <ele>5.6</ele>
        <time>2019-05-18T11:21:15Z</time>
      </trkpt>
      <trkpt lat="51.216893942563" lon="4.552962919896">
        <ele>5.8</ele>
        <time>2019-05-18T11:21:22Z</time>
      </trkpt>
      <trkpt lat="51.216904922852" lon="4.553254693835">
        <ele>6.8</ele>
        <time>2019-05-18T11:21:29Z</time>
      </trkpt>
      <trkpt lat="51.216948424913" lon="4.553562058108">
        <ele>7</ele>
        <time>2019-05-18T11:21:37Z</time>
      </trkpt>
      <trkpt lat="51.216995782648" lon="4.553868165096">
        <ele>7.2</ele>
        <time>2019-05-18T11:21:45Z</time>
      </trkpt>
      <trkpt lat="51.217027298592" lon="4.554180139414">
        <ele>5</ele>
        <time>2019-05-18T11:21:53Z</time>
      </trkpt>
      <trkpt lat="51.217075997431" lon="4.554474930837">
        <ele>7</ele>
        <time>2019-05-18T11:22:00Z</time>
      </trkpt>
      <trkpt lat="51.217137436758" lon="4.554767710604">
        <ele>9.6</ele>
        <time>2019-05-18T11:22:07Z</time>
      </trkpt>
      <trkpt lat="51.217197199705" lon="4.555076835076">
        <ele>10.2</ele>
        <time>2019-05-18T11:22:15Z</time>
      </trkpt>
      <trkpt lat="51.217267440027" lon="4.555370033938">
        <ele>10.2</ele>
        <time>2019-05-18T11:22:22Z</time>
      </trkpt>
      <trkpt lat="51.21734094929" lon="4.555638254738">
        <ele>9.2</ele>
        <time>2019-05-18T11:22:29Z</time>
      </trkpt>
      <trkpt lat="51.217436754407" lon="4.555893315955">
        <ele>9.2</ele>
        <time>2019-05-18T11:22:36Z</time>
      </trkpt>
      <trkpt lat="51.217551083523" lon="4.556128931164">
        <ele>8</ele>
        <time>2019-05-18T11:22:43Z</time>
      </trkpt>
      <trkpt lat="51.217661724603" lon="4.55636982697">
        <ele>8.6</ele>
        <time>2019-05-18T11:22:50Z</time>
      </trkpt>
      <trkpt lat="51.217778819746" lon="4.55660116741">
        <ele>8</ele>
        <time>2019-05-18T11:22:57Z</time>
      </trkpt>
      <trkpt lat="51.217897675088" lon="4.556854216971">
        <ele>5.8</ele>
        <time>2019-05-18T11:23:05Z</time>
      </trkpt>
      <trkpt lat="51.218023738864" lon="4.557085557411">
        <ele>5.6</ele>
        <time>2019-05-18T11:23:12Z</time>
      </trkpt>
      <trkpt lat="51.218153323038" lon="4.557306839571">
        <ele>7</ele>
        <time>2019-05-18T11:23:19Z</time>
      </trkpt>
      <trkpt lat="51.218280308823" lon="4.557532564138">
        <ele>7.4</ele>
        <time>2019-05-18T11:23:26Z</time>
      </trkpt>
      <trkpt lat="51.21837359937" lon="4.557789050278">
        <ele>6.8</ele>
        <time>2019-05-18T11:23:33Z</time>
      </trkpt>
      <trkpt lat="51.218464542985" lon="4.558045201142">
        <ele>9.4</ele>
        <time>2019-05-18T11:23:40Z</time>
      </trkpt>
      <trkpt lat="51.218480300957" lon="4.558352565415">
        <ele>10.4</ele>
        <time>2019-05-18T11:23:47Z</time>
      </trkpt>
      <trkpt lat="51.218519947344" lon="4.558647021562">
        <ele>12</ele>
        <time>2019-05-18T11:23:54Z</time>
      </trkpt>
      <trkpt lat="51.218571663667" lon="4.558937622035">
        <ele>11</ele>
        <time>2019-05-18T11:24:01Z</time>
      </trkpt>
      <trkpt lat="51.218570741658" lon="4.55925236238">
        <ele>7.2</ele>
        <time>2019-05-18T11:24:08Z</time>
      </trkpt>
      <trkpt lat="51.21852447357" lon="4.559574981711">
        <ele>6.2</ele>
        <time>2019-05-18T11:24:15Z</time>
      </trkpt>
      <trkpt lat="51.218424812779" lon="4.559848483108">
        <ele>3.6</ele>
        <time>2019-05-18T11:24:22Z</time>
      </trkpt>
      <trkpt lat="51.218312495319" lon="4.560093318407">
        <ele>2.4</ele>
        <time>2019-05-18T11:24:29Z</time>
      </trkpt>
      <trkpt lat="51.218178384919" lon="4.56028585065">
        <ele>3.6</ele>
        <time>2019-05-18T11:24:36Z</time>
      </trkpt>
      <trkpt lat="51.218072018608" lon="4.560524902438">
        <ele>5.4</ele>
        <time>2019-05-18T11:24:43Z</time>
      </trkpt>
      <trkpt lat="51.21795534256" lon="4.560792033591">
        <ele>6</ele>
        <time>2019-05-18T11:24:51Z</time>
      </trkpt>
      <trkpt lat="51.21783045225" lon="4.561042903858">
        <ele>3.2</ele>
        <time>2019-05-18T11:24:59Z</time>
      </trkpt>
      <trkpt lat="51.217726013776" lon="4.561289499356">
        <ele>3.6</ele>
        <time>2019-05-18T11:25:06Z</time>
      </trkpt>
      <trkpt lat="51.217621240026" lon="4.561553780663">
        <ele>5.2</ele>
        <time>2019-05-18T11:25:13Z</time>
      </trkpt>
      <trkpt lat="51.217451003637" lon="4.562000703571">
        <ele>7</ele>
        <time>2019-05-18T11:25:25Z</time>
      </trkpt>
      <trkpt lat="51.217340697833" lon="4.562249143087">
        <ele>5.2</ele>
        <time>2019-05-18T11:25:32Z</time>
      </trkpt>
      <trkpt lat="51.217250592408" lon="4.562518872629">
        <ele>5.4</ele>
        <time>2019-05-18T11:25:39Z</time>
      </trkpt>
      <trkpt lat="51.217173646566" lon="4.562791284379">
        <ele>5</ele>
        <time>2019-05-18T11:25:46Z</time>
      </trkpt>
      <trkpt lat="51.217142549717" lon="4.563082136309">
        <ele>4.8</ele>
        <time>2019-05-18T11:25:53Z</time>
      </trkpt>
      <trkpt lat="51.217152021264" lon="4.563371730954">
        <ele>4.8</ele>
        <time>2019-05-18T11:26:00Z</time>
      </trkpt>
      <trkpt lat="51.217197954076" lon="4.563682950901">
        <ele>5.2</ele>
        <time>2019-05-18T11:26:08Z</time>
      </trkpt>
      <trkpt lat="51.217163420648" lon="4.563967684044">
        <ele>4</ele>
        <time>2019-05-18T11:26:15Z</time>
      </trkpt>
      <trkpt lat="51.217107010461" lon="4.564250405531">
        <ele>3.8</ele>
        <time>2019-05-18T11:26:22Z</time>
      </trkpt>
      <trkpt lat="51.217057892527" lon="4.56455223775">
        <ele>4.2</ele>
        <time>2019-05-18T11:26:30Z</time>
      </trkpt>
      <trkpt lat="51.216965356351" lon="4.564809645899">
        <ele>2.4</ele>
        <time>2019-05-18T11:26:37Z</time>
      </trkpt>
      <trkpt lat="51.216896960047" lon="4.565105275512">
        <ele>1.2</ele>
        <time>2019-05-18T11:26:45Z</time>
      </trkpt>
      <trkpt lat="51.216848596484" lon="4.56540048603">
        <ele>1.8</ele>
        <time>2019-05-18T11:26:52Z</time>
      </trkpt>
      <trkpt lat="51.21679780217" lon="4.565691840874">
        <ele>4.2</ele>
        <time>2019-05-18T11:26:59Z</time>
      </trkpt>
      <trkpt lat="51.216745247657" lon="4.565995181835">
        <ele>4.2</ele>
        <time>2019-05-18T11:27:07Z</time>
      </trkpt>
      <trkpt lat="51.216694872438" lon="4.566284357385">
        <ele>4</ele>
        <time>2019-05-18T11:27:14Z</time>
      </trkpt>
      <trkpt lat="51.216649777816" lon="4.566591386382">
        <ele>3.2</ele>
        <time>2019-05-18T11:27:21Z</time>
      </trkpt>
      <trkpt lat="51.216593451448" lon="4.566864133408">
        <ele>2.4</ele>
        <time>2019-05-18T11:27:28Z</time>
      </trkpt>
      <trkpt lat="51.216513823398" lon="4.567124894317">
        <ele>2.8</ele>
        <time>2019-05-18T11:27:35Z</time>
      </trkpt>
      <trkpt lat="51.216404271965" lon="4.567376770412">
        <ele>4.8</ele>
        <time>2019-05-18T11:27:42Z</time>
      </trkpt>
      <trkpt lat="51.216270748298" lon="4.567569637931">
        <ele>5</ele>
        <time>2019-05-18T11:27:49Z</time>
      </trkpt>
      <trkpt lat="51.216101014823" lon="4.56773987432">
        <ele>2</ele>
        <time>2019-05-18T11:27:57Z</time>
      </trkpt>
      <trkpt lat="51.215936813402" lon="4.56787649929">
        <ele>1.6</ele>
        <time>2019-05-18T11:28:04Z</time>
      </trkpt>
      <trkpt lat="51.215743694426" lon="4.567963838688">
        <ele>0.6</ele>
        <time>2019-05-18T11:28:12Z</time>
      </trkpt>
      <trkpt lat="51.215557364789" lon="4.568093087586">
        <ele>0.8</ele>
        <time>2019-05-18T11:28:20Z</time>
      </trkpt>
      <trkpt lat="51.215385368201" lon="4.568193754205">
        <ele>0</ele>
        <time>2019-05-18T11:28:27Z</time>
      </trkpt>
      <trkpt lat="51.215196523994" lon="4.568282518526">
        <ele>0</ele>
        <time>2019-05-18T11:28:35Z</time>
      </trkpt>
      <trkpt lat="51.215004662303" lon="4.568378491281">
        <ele>0</ele>
        <time>2019-05-18T11:28:43Z</time>
      </trkpt>
      <trkpt lat="51.21482302653" lon="4.568496508433">
        <ele>0</ele>
        <time>2019-05-18T11:28:51Z</time>
      </trkpt>
      <trkpt lat="51.214646000802" lon="4.568657357094">
        <ele>0</ele>
        <time>2019-05-18T11:28:59Z</time>
      </trkpt>
      <trkpt lat="51.214468304522" lon="4.568816529375">
        <ele>0</ele>
        <time>2019-05-18T11:29:07Z</time>
      </trkpt>
      <trkpt lat="51.21431005425" lon="4.569017024423">
        <ele>0</ele>
        <time>2019-05-18T11:29:15Z</time>
      </trkpt>
      <trkpt lat="51.214180050981" lon="4.569222800068">
        <ele>1.2</ele>
        <time>2019-05-18T11:29:22Z</time>
      </trkpt>
      <trkpt lat="51.214064213123" lon="4.569447351169">
        <ele>2.6</ele>
        <time>2019-05-18T11:29:29Z</time>
      </trkpt>
      <trkpt lat="51.213934377492" lon="4.56964591838">
        <ele>2.2</ele>
        <time>2019-05-18T11:29:36Z</time>
      </trkpt>
      <trkpt lat="51.21380714025" lon="4.569893854982">
        <ele>2.4</ele>
        <time>2019-05-18T11:29:44Z</time>
      </trkpt>
      <trkpt lat="51.213688033451" lon="4.570140953394">
        <ele>1</ele>
        <time>2019-05-18T11:29:52Z</time>
      </trkpt>
      <trkpt lat="51.213578062923" lon="4.57037011454">
        <ele>2.2</ele>
        <time>2019-05-18T11:29:59Z</time>
      </trkpt>
      <trkpt lat="51.213467589481" lon="4.570609417785">
        <ele>3.6</ele>
        <time>2019-05-18T11:30:06Z</time>
      </trkpt>
      <trkpt lat="51.21331260815" lon="4.570794993051">
        <ele>3.2</ele>
        <time>2019-05-18T11:30:13Z</time>
      </trkpt>
      <trkpt lat="51.21325225847" lon="4.571088611008">
        <ele>4.2</ele>
        <time>2019-05-18T11:30:21Z</time>
      </trkpt>
      <trkpt lat="51.213266423881" lon="4.571307881512">
        <ele>3.8</ele>
        <time>2019-05-18T11:30:27Z</time>
      </trkpt>
      <trkpt lat="51.213450238948" lon="4.571378121834">
        <ele>4.8</ele>
        <time>2019-05-18T11:30:35Z</time>
      </trkpt>
      <trkpt lat="51.213595581094" lon="4.571515668813">
        <ele>5.6</ele>
        <time>2019-05-18T11:30:42Z</time>
      </trkpt>
      <trkpt lat="51.213593485619" lon="4.57183527066">
        <ele>7</ele>
        <time>2019-05-18T11:30:50Z</time>
      </trkpt>
      <trkpt lat="51.213534896138" lon="4.572041633038">
        <ele>7.4</ele>
        <time>2019-05-18T11:30:56Z</time>
      </trkpt>
      <trkpt lat="51.213567501729" lon="4.572051775137">
        <ele>8</ele>
        <time>2019-05-18T11:30:59Z</time>
      </trkpt>
      <trkpt lat="51.213626175029" lon="4.571759498284">
        <ele>10</ele>
        <time>2019-05-18T11:31:07Z</time>
      </trkpt>
      <trkpt lat="51.213630030703" lon="4.571380887861">
        <ele>10.4</ele>
        <time>2019-05-18T11:31:16Z</time>
      </trkpt>
      <trkpt lat="51.21354143402" lon="4.571185589591">
        <ele>10.2</ele>
        <time>2019-05-18T11:31:22Z</time>
      </trkpt>
      <trkpt lat="51.213347225397" lon="4.571151894353">
        <ele>11</ele>
        <time>2019-05-18T11:31:30Z</time>
      </trkpt>
      <trkpt lat="51.213269189908" lon="4.570912004375">
        <ele>11</ele>
        <time>2019-05-18T11:31:37Z</time>
      </trkpt>
      <trkpt lat="51.213405898697" lon="4.570672198216">
        <ele>10.6</ele>
        <time>2019-05-18T11:31:44Z</time>
      </trkpt>
      <trkpt lat="51.213548810092" lon="4.570460387603">
        <ele>8.8</ele>
        <time>2019-05-18T11:31:51Z</time>
      </trkpt>
      <trkpt lat="51.213675376782" lon="4.570223263652">
        <ele>6.8</ele>
        <time>2019-05-18T11:31:58Z</time>
      </trkpt>
      <trkpt lat="51.213761207438" lon="4.56996359239">
        <ele>5.6</ele>
        <time>2019-05-18T11:32:06Z</time>
      </trkpt>
      <trkpt lat="51.213577979104" lon="4.569842306297">
        <ele>5.6</ele>
        <time>2019-05-18T11:32:13Z</time>
      </trkpt>
      <trkpt lat="51.213542607486" lon="4.569884886349">
        <ele>5.4</ele>
        <time>2019-05-18T11:32:15Z</time>
      </trkpt>
      <trkpt lat="51.213538165079" lon="4.569964849675">
        <ele>5.2</ele>
        <time>2019-05-18T11:32:17Z</time>
      </trkpt>
      <trkpt lat="51.213681579388" lon="4.570134918426">
        <ele>6.4</ele>
        <time>2019-05-18T11:32:25Z</time>
      </trkpt>
      <trkpt lat="51.213810241553" lon="4.569906511651">
        <ele>3.6</ele>
        <time>2019-05-18T11:32:32Z</time>
      </trkpt>
      <trkpt lat="51.213907806869" lon="4.569657569221">
        <ele>5.4</ele>
        <time>2019-05-18T11:32:39Z</time>
      </trkpt>
      <trkpt lat="51.214031439894" lon="4.569440897106">
        <ele>5.2</ele>
        <time>2019-05-18T11:32:46Z</time>
      </trkpt>
      <trkpt lat="51.214116516179" lon="4.569240485877">
        <ele>4.6</ele>
        <time>2019-05-18T11:32:52Z</time>
      </trkpt>
      <trkpt lat="51.214003360529" lon="4.568978467683">
        <ele>7.2</ele>
        <time>2019-05-18T11:33:00Z</time>
      </trkpt>
      <trkpt lat="51.213888779956" lon="4.568739164438">
        <ele>8</ele>
        <time>2019-05-18T11:33:07Z</time>
      </trkpt>
      <trkpt lat="51.213797249608" lon="4.568483097393">
        <ele>5.8</ele>
        <time>2019-05-18T11:33:14Z</time>
      </trkpt>
      <trkpt lat="51.213702869414" lon="4.568234154963">
        <ele>3</ele>
        <time>2019-05-18T11:33:21Z</time>
      </trkpt>
      <trkpt lat="51.213628102866" lon="4.568011112604">
        <ele>4.6</ele>
        <time>2019-05-18T11:33:27Z</time>
      </trkpt>
      <trkpt lat="51.213621229708" lon="4.567945398508">
        <ele>10.4</ele>
        <time>2019-05-18T11:33:56Z</time>
      </trkpt>
      <trkpt lat="51.2136436932" lon="4.567993342976">
        <ele>10.6</ele>
        <time>2019-05-18T11:33:58Z</time>
      </trkpt>
      <trkpt lat="51.213767158587" lon="4.568256953731">
        <ele>11.6</ele>
        <time>2019-05-18T11:34:05Z</time>
      </trkpt>
      <trkpt lat="51.213885008101" lon="4.568528527291">
        <ele>12.2</ele>
        <time>2019-05-18T11:34:12Z</time>
      </trkpt>
      <trkpt lat="51.213970168205" lon="4.568787025087">
        <ele>11.8</ele>
        <time>2019-05-18T11:34:18Z</time>
      </trkpt>
      <trkpt lat="51.21405859725" lon="4.569042170123">
        <ele>12</ele>
        <time>2019-05-18T11:34:24Z</time>
      </trkpt>
      <trkpt lat="51.214173345461" lon="4.569286921603">
        <ele>11.4</ele>
        <time>2019-05-18T11:34:31Z</time>
      </trkpt>
      <trkpt lat="51.214184828664" lon="4.569284407033">
        <ele>11.2</ele>
        <time>2019-05-18T11:34:32Z</time>
      </trkpt>
      <trkpt lat="51.214338720348" lon="4.569062873416">
        <ele>9.2</ele>
        <time>2019-05-18T11:34:39Z</time>
      </trkpt>
      <trkpt lat="51.214501915941" lon="4.568891128285">
        <ele>9.2</ele>
        <time>2019-05-18T11:34:45Z</time>
      </trkpt>
      <trkpt lat="51.214670140674" lon="4.56874905508">
        <ele>10.2</ele>
        <time>2019-05-18T11:34:51Z</time>
      </trkpt>
      <trkpt lat="51.214841299072" lon="4.568602455649">
        <ele>8.2</ele>
        <time>2019-05-18T11:34:58Z</time>
      </trkpt>
      <trkpt lat="51.215011200185" lon="4.56844311573">
        <ele>6.8</ele>
        <time>2019-05-18T11:35:06Z</time>
      </trkpt>
      <trkpt lat="51.215187974456" lon="4.568312190452">
        <ele>8.8</ele>
        <time>2019-05-18T11:35:13Z</time>
      </trkpt>
      <trkpt lat="51.215368269125" lon="4.568186378133">
        <ele>10.6</ele>
        <time>2019-05-18T11:35:20Z</time>
      </trkpt>
      <trkpt lat="51.215548228518" lon="4.56806593023">
        <ele>12.4</ele>
        <time>2019-05-18T11:35:27Z</time>
      </trkpt>
      <trkpt lat="51.215724667513" lon="4.567950008553">
        <ele>11.2</ele>
        <time>2019-05-18T11:35:36Z</time>
      </trkpt>
      <trkpt lat="51.215901441784" lon="4.567838696921">
        <ele>10.6</ele>
        <time>2019-05-18T11:35:43Z</time>
      </trkpt>
      <trkpt lat="51.216089783077" lon="4.567695282612">
        <ele>10.4</ele>
        <time>2019-05-18T11:35:51Z</time>
      </trkpt>
      <trkpt lat="51.216237472155" lon="4.567511216088">
        <ele>9</ele>
        <time>2019-05-18T11:35:58Z</time>
      </trkpt>
      <trkpt lat="51.216380802645" lon="4.567286748806">
        <ele>8.2</ele>
        <time>2019-05-18T11:36:06Z</time>
      </trkpt>
      <trkpt lat="51.216484151472" lon="4.567024730612">
        <ele>7.4</ele>
        <time>2019-05-18T11:36:13Z</time>
      </trkpt>
      <trkpt lat="51.216577106743" lon="4.566741925306">
        <ele>7</ele>
        <time>2019-05-18T11:36:20Z</time>
      </trkpt>
      <trkpt lat="51.216619602976" lon="4.56644738534">
        <ele>5.4</ele>
        <time>2019-05-18T11:36:27Z</time>
      </trkpt>
      <trkpt lat="51.216675761706" lon="4.566159467075">
        <ele>4.8</ele>
        <time>2019-05-18T11:36:34Z</time>
      </trkpt>
      <trkpt lat="51.216721945975" lon="4.565854952648">
        <ele>5.6</ele>
        <time>2019-05-18T11:36:41Z</time>
      </trkpt>
      <trkpt lat="51.216777434153" lon="4.565559406854">
        <ele>6.6</ele>
        <time>2019-05-18T11:36:48Z</time>
      </trkpt>
      <trkpt lat="51.216838454385" lon="4.565267800553">
        <ele>7</ele>
        <time>2019-05-18T11:36:55Z</time>
      </trkpt>
      <trkpt lat="51.216895535124" lon="4.564968315266">
        <ele>7.8</ele>
        <time>2019-05-18T11:37:02Z</time>
      </trkpt>
      <trkpt lat="51.217072477033" lon="4.564481410695">
        <ele>7.2</ele>
        <time>2019-05-18T11:37:15Z</time>
      </trkpt>
      <trkpt lat="51.217129557772" lon="4.564179578476">
        <ele>7.8</ele>
        <time>2019-05-18T11:37:22Z</time>
      </trkpt>
      <trkpt lat="51.217188650167" lon="4.563874728773">
        <ele>7.2</ele>
        <time>2019-05-18T11:37:29Z</time>
      </trkpt>
      <trkpt lat="51.217219244102" lon="4.563582200463">
        <ele>7.8</ele>
        <time>2019-05-18T11:37:36Z</time>
      </trkpt>
      <trkpt lat="51.217168449788" lon="4.563267460118">
        <ele>9.2</ele>
        <time>2019-05-18T11:37:43Z</time>
      </trkpt>
      <trkpt lat="51.217150512522" lon="4.562958587103">
        <ele>9.8</ele>
        <time>2019-05-18T11:37:50Z</time>
      </trkpt>
      <trkpt lat="51.217190242728" lon="4.562669998286">
        <ele>9</ele>
        <time>2019-05-18T11:37:57Z</time>
      </trkpt>
      <trkpt lat="51.217284874379" lon="4.562401023115">
        <ele>8.4</ele>
        <time>2019-05-18T11:38:04Z</time>
      </trkpt>
      <trkpt lat="51.217381852962" lon="4.562155517264">
        <ele>9</ele>
        <time>2019-05-18T11:38:11Z</time>
      </trkpt>
      <trkpt lat="51.217474892052" lon="4.56189769002">
        <ele>8.4</ele>
        <time>2019-05-18T11:38:18Z</time>
      </trkpt>
      <trkpt lat="51.217570026617" lon="4.561648999047">
        <ele>6.8</ele>
        <time>2019-05-18T11:38:25Z</time>
      </trkpt>
      <trkpt lat="51.217677398756" lon="4.561401397721">
        <ele>6</ele>
        <time>2019-05-18T11:38:32Z</time>
      </trkpt>
      <trkpt lat="51.217781334316" lon="4.561156143327">
        <ele>6.4</ele>
        <time>2019-05-18T11:38:39Z</time>
      </trkpt>
      <trkpt lat="51.217898597097" lon="4.560897561712">
        <ele>6.2</ele>
        <time>2019-05-18T11:38:46Z</time>
      </trkpt>
      <trkpt lat="51.21802575052" lon="4.560679380855">
        <ele>6.6</ele>
        <time>2019-05-18T11:38:53Z</time>
      </trkpt>
      <trkpt lat="51.218129518442" lon="4.560437060126">
        <ele>6.4</ele>
        <time>2019-05-18T11:39:00Z</time>
      </trkpt>
      <trkpt lat="51.218243260825" lon="4.560185519307">
        <ele>5.4</ele>
        <time>2019-05-18T11:39:08Z</time>
      </trkpt>
      <trkpt lat="51.218366558574" lon="4.559960884387">
        <ele>4.6</ele>
        <time>2019-05-18T11:39:16Z</time>
      </trkpt>
      <trkpt lat="51.218474685084" lon="4.559719150391">
        <ele>5.8</ele>
        <time>2019-05-18T11:39:23Z</time>
      </trkpt>
      <trkpt lat="51.21851525348" lon="4.559440871311">
        <ele>6.4</ele>
        <time>2019-05-18T11:39:30Z</time>
      </trkpt>
      <trkpt lat="51.218516594584" lon="4.559128058803">
        <ele>5</ele>
        <time>2019-05-18T11:39:38Z</time>
      </trkpt>
      <trkpt lat="51.218478792215" lon="4.558832764466">
        <ele>10.2</ele>
        <time>2019-05-18T11:39:46Z</time>
      </trkpt>
      <trkpt lat="51.218477283473" lon="4.558785322912">
        <ele>11.8</ele>
        <time>2019-05-18T11:39:48Z</time>
      </trkpt>
      <trkpt lat="51.218488096124" lon="4.558548366599">
        <ele>13.4</ele>
        <time>2019-05-18T11:40:53Z</time>
      </trkpt>
      <trkpt lat="51.21842808172" lon="4.558241253783">
        <ele>14.8</ele>
        <time>2019-05-18T11:41:02Z</time>
      </trkpt>
      <trkpt lat="51.218362032348" lon="4.557943193419">
        <ele>13.8</ele>
        <time>2019-05-18T11:41:09Z</time>
      </trkpt>
      <trkpt lat="51.218272010742" lon="4.557667596547">
        <ele>12.4</ele>
        <time>2019-05-18T11:41:16Z</time>
      </trkpt>
      <trkpt lat="51.218146617518" lon="4.55745779759">
        <ele>11</ele>
        <time>2019-05-18T11:41:22Z</time>
      </trkpt>
      <trkpt lat="51.218007561797" lon="4.557250513203">
        <ele>11.6</ele>
        <time>2019-05-18T11:41:29Z</time>
      </trkpt>
      <trkpt lat="51.217861549099" lon="4.557016993469">
        <ele>10.6</ele>
        <time>2019-05-18T11:41:36Z</time>
      </trkpt>
      <trkpt lat="51.217715704039" lon="4.556784563382">
        <ele>9.4</ele>
        <time>2019-05-18T11:41:43Z</time>
      </trkpt>
      <trkpt lat="51.21760162638" lon="4.556541572101">
        <ele>9</ele>
        <time>2019-05-18T11:41:50Z</time>
      </trkpt>
      <trkpt lat="51.217471120197" lon="4.556291623843">
        <ele>8</ele>
        <time>2019-05-18T11:41:57Z</time>
      </trkpt>
      <trkpt lat="51.217347738629" lon="4.556030779115">
        <ele>7.2</ele>
        <time>2019-05-18T11:42:04Z</time>
      </trkpt>
      <trkpt lat="51.217256040643" lon="4.55576968293">
        <ele>5.2</ele>
        <time>2019-05-18T11:42:12Z</time>
      </trkpt>
      <trkpt lat="51.217173395109" lon="4.555471454928">
        <ele>5.6</ele>
        <time>2019-05-18T11:42:20Z</time>
      </trkpt>
      <trkpt lat="51.217109022117" lon="4.555192505296">
        <ele>6</ele>
        <time>2019-05-18T11:42:27Z</time>
      </trkpt>
      <trkpt lat="51.217046828419" lon="4.554910454361">
        <ele>6.6</ele>
        <time>2019-05-18T11:42:34Z</time>
      </trkpt>
      <trkpt lat="51.216999386865" lon="4.554618596603">
        <ele>7.4</ele>
        <time>2019-05-18T11:42:41Z</time>
      </trkpt>
      <trkpt lat="51.216942976678" lon="4.554319446592">
        <ele>9.4</ele>
        <time>2019-05-18T11:42:48Z</time>
      </trkpt>
      <trkpt lat="51.216906850689" lon="4.554034126716">
        <ele>9.8</ele>
        <time>2019-05-18T11:42:55Z</time>
      </trkpt>
      <trkpt lat="51.216871227614" lon="4.553735982533">
        <ele>13</ele>
        <time>2019-05-18T11:43:03Z</time>
      </trkpt>
      <trkpt lat="51.216839124937" lon="4.553410345718">
        <ele>14.2</ele>
        <time>2019-05-18T11:43:11Z</time>
      </trkpt>
      <trkpt lat="51.216821020033" lon="4.553086217645">
        <ele>14.4</ele>
        <time>2019-05-18T11:43:19Z</time>
      </trkpt>
      <trkpt lat="51.21681540416" lon="4.552792683507">
        <ele>15.4</ele>
        <time>2019-05-18T11:43:26Z</time>
      </trkpt>
      <trkpt lat="51.216828396105" lon="4.552488420537">
        <ele>14.6</ele>
        <time>2019-05-18T11:43:33Z</time>
      </trkpt>
      <trkpt lat="51.216848009751" lon="4.552184660481">
        <ele>11</ele>
        <time>2019-05-18T11:43:40Z</time>
      </trkpt>
      <trkpt lat="51.216855721099" lon="4.551871428878">
        <ele>9.2</ele>
        <time>2019-05-18T11:43:47Z</time>
      </trkpt>
      <trkpt lat="51.216864102999" lon="4.551438587562">
        <ele>9</ele>
        <time>2019-05-18T11:43:57Z</time>
      </trkpt>
      <trkpt lat="51.21689503221" lon="4.551138180266">
        <ele>9.4</ele>
        <time>2019-05-18T11:44:04Z</time>
      </trkpt>
      <trkpt lat="51.216913807666" lon="4.55082352374">
        <ele>9.8</ele>
        <time>2019-05-18T11:44:11Z</time>
      </trkpt>
      <trkpt lat="51.216927470163" lon="4.550510292137">
        <ele>12.4</ele>
        <time>2019-05-18T11:44:18Z</time>
      </trkpt>
      <trkpt lat="51.216922860118" lon="4.550214075791">
        <ele>11.6</ele>
        <time>2019-05-18T11:44:25Z</time>
      </trkpt>
      <trkpt lat="51.216958064098" lon="4.549929510286">
        <ele>10.8</ele>
        <time>2019-05-18T11:44:32Z</time>
      </trkpt>
      <trkpt lat="51.217001817616" lon="4.54964838136">
        <ele>8.8</ele>
        <time>2019-05-18T11:44:39Z</time>
      </trkpt>
      <trkpt lat="51.21703081899" lon="4.549359038172">
        <ele>8</ele>
        <time>2019-05-18T11:44:46Z</time>
      </trkpt>
      <trkpt lat="51.217099131475" lon="4.549062318912">
        <ele>9</ele>
        <time>2019-05-18T11:44:53Z</time>
      </trkpt>
      <trkpt lat="51.217160906078" lon="4.548777166674">
        <ele>7.4</ele>
        <time>2019-05-18T11:45:00Z</time>
      </trkpt>
      <trkpt lat="51.217255286272" lon="4.548459325026">
        <ele>6.6</ele>
        <time>2019-05-18T11:45:07Z</time>
      </trkpt>
      <trkpt lat="51.217317144694" lon="4.548179537204">
        <ele>5.4</ele>
        <time>2019-05-18T11:45:15Z</time>
      </trkpt>
      <trkpt lat="51.217362323135" lon="4.547892624767">
        <ele>5.4</ele>
        <time>2019-05-18T11:45:22Z</time>
      </trkpt>
      <trkpt lat="51.21738369698" lon="4.547600012638">
        <ele>6.2</ele>
        <time>2019-05-18T11:45:29Z</time>
      </trkpt>
      <trkpt lat="51.217403310626" lon="4.547313016382">
        <ele>7.2</ele>
        <time>2019-05-18T11:45:36Z</time>
      </trkpt>
      <trkpt lat="51.217420242064" lon="4.547020990986">
        <ele>7.4</ele>
        <time>2019-05-18T11:45:43Z</time>
      </trkpt>
      <trkpt lat="51.2174742215" lon="4.546736676938">
        <ele>7</ele>
        <time>2019-05-18T11:45:50Z</time>
      </trkpt>
      <trkpt lat="51.217495092431" lon="4.546417326548">
        <ele>8.2</ele>
        <time>2019-05-18T11:45:58Z</time>
      </trkpt>
      <trkpt lat="51.217575893947" lon="4.54613049793">
        <ele>8.2</ele>
        <time>2019-05-18T11:46:05Z</time>
      </trkpt>
      <trkpt lat="51.217666502286" lon="4.545865881347">
        <ele>7.6</ele>
        <time>2019-05-18T11:46:12Z</time>
      </trkpt>
      <trkpt lat="51.217820058694" lon="4.545664967204">
        <ele>6.2</ele>
        <time>2019-05-18T11:46:19Z</time>
      </trkpt>
      <trkpt lat="51.217937321475" lon="4.545442176302">
        <ele>2.6</ele>
        <time>2019-05-18T11:46:26Z</time>
      </trkpt>
      <trkpt lat="51.217999179897" lon="4.545144618852">
        <ele>0</ele>
        <time>2019-05-18T11:46:33Z</time>
      </trkpt>
      <trkpt lat="51.218148712993" lon="4.545002629466">
        <ele>1.4</ele>
        <time>2019-05-18T11:46:41Z</time>
      </trkpt>
      <trkpt lat="51.21827804571" lon="4.545243944367">
        <ele>3.8</ele>
        <time>2019-05-18T11:46:48Z</time>
      </trkpt>
      <trkpt lat="51.218466806098" lon="4.545355339818">
        <ele>4.4</ele>
        <time>2019-05-18T11:46:56Z</time>
      </trkpt>
      <trkpt lat="51.218648693328" lon="4.545424239036">
        <ele>5.2</ele>
        <time>2019-05-18T11:47:03Z</time>
      </trkpt>
      <trkpt lat="51.218828317445" lon="4.545477296463">
        <ele>8.2</ele>
        <time>2019-05-18T11:47:09Z</time>
      </trkpt>
      <trkpt lat="51.219012551607" lon="4.545520630886">
        <ele>9</ele>
        <time>2019-05-18T11:47:17Z</time>
      </trkpt>
      <trkpt lat="51.219209023343" lon="4.545593553416">
        <ele>9.4</ele>
        <time>2019-05-18T11:47:25Z</time>
      </trkpt>
      <trkpt lat="51.219394598609" lon="4.54565440601">
        <ele>7</ele>
        <time>2019-05-18T11:47:33Z</time>
      </trkpt>
      <trkpt lat="51.219570786147" lon="4.545734117879">
        <ele>6.2</ele>
        <time>2019-05-18T11:47:42Z</time>
      </trkpt>
      <trkpt lat="51.219754601214" lon="4.545807124228">
        <ele>4.4</ele>
        <time>2019-05-18T11:47:51Z</time>
      </trkpt>
      <trkpt lat="51.219928693277" lon="4.54589580473">
        <ele>4.2</ele>
        <time>2019-05-18T11:47:58Z</time>
      </trkpt>
      <trkpt lat="51.220116028742" lon="4.545949197433">
        <ele>5.4</ele>
        <time>2019-05-18T11:48:05Z</time>
      </trkpt>
      <trkpt lat="51.220301017275" lon="4.545979036997">
        <ele>7.2</ele>
        <time>2019-05-18T11:48:12Z</time>
      </trkpt>
      <trkpt lat="51.220489442387" lon="4.54585976256">
        <ele>8.4</ele>
        <time>2019-05-18T11:48:20Z</time>
      </trkpt>
      <trkpt lat="51.220681806992" lon="4.545733447327">
        <ele>9.8</ele>
        <time>2019-05-18T11:48:27Z</time>
      </trkpt>
      <trkpt lat="51.220867382258" lon="4.545618447659">
        <ele>9.8</ele>
        <time>2019-05-18T11:48:34Z</time>
      </trkpt>
      <trkpt lat="51.221046335823" lon="4.545508980045">
        <ele>9.2</ele>
        <time>2019-05-18T11:48:41Z</time>
      </trkpt>
      <trkpt lat="51.221229815614" lon="4.545416862964">
        <ele>10</ele>
        <time>2019-05-18T11:48:49Z</time>
      </trkpt>
      <trkpt lat="51.22141203812" lon="4.54527386775">
        <ele>9.4</ele>
        <time>2019-05-18T11:48:57Z</time>
      </trkpt>
      <trkpt lat="51.221601636698" lon="4.545217625201">
        <ele>10.4</ele>
        <time>2019-05-18T11:49:05Z</time>
      </trkpt>
      <trkpt lat="51.221785703222" lon="4.54516406486">
        <ele>11.8</ele>
        <time>2019-05-18T11:49:13Z</time>
      </trkpt>
      <trkpt lat="51.221971781402" lon="4.545051328305">
        <ele>10.6</ele>
        <time>2019-05-18T11:49:20Z</time>
      </trkpt>
      <trkpt lat="51.222152411347" lon="4.544939513759">
        <ele>10</ele>
        <time>2019-05-18T11:49:27Z</time>
      </trkpt>
      <trkpt lat="51.22248995046" lon="4.544720913807">
        <ele>9.6</ele>
        <time>2019-05-18T11:49:41Z</time>
      </trkpt>
      <trkpt lat="51.222670245129" lon="4.544681518877">
        <ele>12.2</ele>
        <time>2019-05-18T11:49:49Z</time>
      </trkpt>
      <trkpt lat="51.222846600305" lon="4.544603734845">
        <ele>14</ele>
        <time>2019-05-18T11:49:55Z</time>
      </trkpt>
      <trkpt lat="51.223013148658" lon="4.5444817782">
        <ele>12.6</ele>
        <time>2019-05-18T11:50:01Z</time>
      </trkpt>
      <trkpt lat="51.223193694784" lon="4.544326293955">
        <ele>13.6</ele>
        <time>2019-05-18T11:50:08Z</time>
      </trkpt>
      <trkpt lat="51.223368122123" lon="4.54423115939">
        <ele>12.4</ele>
        <time>2019-05-18T11:50:14Z</time>
      </trkpt>
      <trkpt lat="51.223563252755" lon="4.544130408952">
        <ele>12</ele>
        <time>2019-05-18T11:50:21Z</time>
      </trkpt>
      <trkpt lat="51.223747570736" lon="4.544008536126">
        <ele>13.4</ele>
        <time>2019-05-18T11:50:29Z</time>
      </trkpt>
      <trkpt lat="51.223915963107" lon="4.543901666901">
        <ele>14.2</ele>
        <time>2019-05-18T11:50:36Z</time>
      </trkpt>
      <trkpt lat="51.224108160074" lon="4.543802760481">
        <ele>13.6</ele>
        <time>2019-05-18T11:50:44Z</time>
      </trkpt>
      <trkpt lat="51.224262470853" lon="4.543633865196">
        <ele>18.8</ele>
        <time>2019-05-18T11:50:52Z</time>
      </trkpt>
      <trkpt lat="51.2243473795" lon="4.543380228902">
        <ele>19.6</ele>
        <time>2019-05-18T11:50:59Z</time>
      </trkpt>
      <trkpt lat="51.224430863224" lon="4.543118126889">
        <ele>17.4</ele>
        <time>2019-05-18T11:51:06Z</time>
      </trkpt>
      <trkpt lat="51.224521471563" lon="4.542830627719">
        <ele>15.2</ele>
        <time>2019-05-18T11:51:14Z</time>
      </trkpt>
      <trkpt lat="51.224612834273" lon="4.54254136835">
        <ele>11.6</ele>
        <time>2019-05-18T11:51:22Z</time>
      </trkpt>
      <trkpt lat="51.224697910558" lon="4.542279685432">
        <ele>12.2</ele>
        <time>2019-05-18T11:51:29Z</time>
      </trkpt>
      <trkpt lat="51.224765803948" lon="4.542003585646">
        <ele>12.4</ele>
        <time>2019-05-18T11:51:36Z</time>
      </trkpt>
      <trkpt lat="51.224858340124" lon="4.541712482259">
        <ele>14.4</ele>
        <time>2019-05-18T11:51:44Z</time>
      </trkpt>
      <trkpt lat="51.224945511884" lon="4.54142489927">
        <ele>15.4</ele>
        <time>2019-05-18T11:51:52Z</time>
      </trkpt>
      <trkpt lat="51.225040059716" lon="4.541141088136">
        <ele>13.8</ele>
        <time>2019-05-18T11:52:00Z</time>
      </trkpt>
      <trkpt lat="51.225124297811" lon="4.540839423555">
        <ele>13.4</ele>
        <time>2019-05-18T11:52:08Z</time>
      </trkpt>
      <trkpt lat="51.225203506766" lon="4.5405674309">
        <ele>13.4</ele>
        <time>2019-05-18T11:52:15Z</time>
      </trkpt>
      <trkpt lat="51.225243739886" lon="4.540284374137">
        <ele>12.4</ele>
        <time>2019-05-18T11:52:22Z</time>
      </trkpt>
      <trkpt lat="51.22526855031" lon="4.539964688471">
        <ele>12.6</ele>
        <time>2019-05-18T11:52:30Z</time>
      </trkpt>
      <trkpt lat="51.225328397076" lon="4.53966386208">
        <ele>14.6</ele>
        <time>2019-05-18T11:52:38Z</time>
      </trkpt>
      <trkpt lat="51.225413054266" lon="4.539393545805">
        <ele>15.6</ele>
        <time>2019-05-18T11:52:45Z</time>
      </trkpt>
      <trkpt lat="51.225517073645" lon="4.539115350544">
        <ele>14.6</ele>
        <time>2019-05-18T11:52:53Z</time>
      </trkpt>
      <trkpt lat="51.225588822709" lon="4.538849728133">
        <ele>12.6</ele>
        <time>2019-05-18T11:53:00Z</time>
      </trkpt>
      <trkpt lat="51.225672222614" lon="4.538589721595">
        <ele>12.8</ele>
        <time>2019-05-18T11:53:07Z</time>
      </trkpt>
      <trkpt lat="51.225763836781" lon="4.53833868369">
        <ele>13</ele>
        <time>2019-05-18T11:53:14Z</time>
      </trkpt>
      <trkpt lat="51.225837848958" lon="4.538056381298">
        <ele>12.2</ele>
        <time>2019-05-18T11:53:21Z</time>
      </trkpt>
      <trkpt lat="51.225932229152" lon="4.537796961493">
        <ele>13</ele>
        <time>2019-05-18T11:53:28Z</time>
      </trkpt>
      <trkpt lat="51.226024262414" lon="4.537506947753">
        <ele>12.8</ele>
        <time>2019-05-18T11:53:36Z</time>
      </trkpt>
      <trkpt lat="51.226113362011" lon="4.537223304257">
        <ele>14.4</ele>
        <time>2019-05-18T11:53:44Z</time>
      </trkpt>
      <trkpt lat="51.22620397035" lon="4.536961705158">
        <ele>15</ele>
        <time>2019-05-18T11:53:51Z</time>
      </trkpt>
      <trkpt lat="51.226303379684" lon="4.536700441335">
        <ele>14.8</ele>
        <time>2019-05-18T11:53:58Z</time>
      </trkpt>
      <trkpt lat="51.226396670231" lon="4.536443452281">
        <ele>16.6</ele>
        <time>2019-05-18T11:54:05Z</time>
      </trkpt>
      <trkpt lat="51.226468670752" lon="4.536155114921">
        <ele>15.2</ele>
        <time>2019-05-18T11:54:13Z</time>
      </trkpt>
      <trkpt lat="51.226548047345" lon="4.535853953254">
        <ele>16.2</ele>
        <time>2019-05-18T11:54:21Z</time>
      </trkpt>
      <trkpt lat="51.226645109747" lon="4.535593443802">
        <ele>17</ele>
        <time>2019-05-18T11:54:28Z</time>
      </trkpt>
      <trkpt lat="51.226729683118" lon="4.53532539064">
        <ele>15.4</ele>
        <time>2019-05-18T11:54:35Z</time>
      </trkpt>
      <trkpt lat="51.226818195982" lon="4.535049709949">
        <ele>14.4</ele>
        <time>2019-05-18T11:54:43Z</time>
      </trkpt>
      <trkpt lat="51.226909642511" lon="4.534760618218">
        <ele>12.2</ele>
        <time>2019-05-18T11:54:51Z</time>
      </trkpt>
      <trkpt lat="51.227003435972" lon="4.534508658304">
        <ele>11.6</ele>
        <time>2019-05-18T11:54:58Z</time>
      </trkpt>
      <trkpt lat="51.227100498374" lon="4.534224428075">
        <ele>8.4</ele>
        <time>2019-05-18T11:55:06Z</time>
      </trkpt>
      <trkpt lat="51.227154813086" lon="4.533948915022">
        <ele>7.2</ele>
        <time>2019-05-18T11:55:13Z</time>
      </trkpt>
      <trkpt lat="51.227306022562" lon="4.533553540799">
        <ele>7</ele>
        <time>2019-05-18T11:55:23Z</time>
      </trkpt>
      <trkpt lat="51.227384896241" lon="4.533277357194">
        <ele>5.8</ele>
        <time>2019-05-18T11:55:30Z</time>
      </trkpt>
      <trkpt lat="51.227472822372" lon="4.533015590457">
        <ele>5</ele>
        <time>2019-05-18T11:55:37Z</time>
      </trkpt>
      <trkpt lat="51.227567202566" lon="4.532723565061">
        <ele>4.4</ele>
        <time>2019-05-18T11:55:45Z</time>
      </trkpt>
      <trkpt lat="51.227664264968" lon="4.53247638283">
        <ele>5.2</ele>
        <time>2019-05-18T11:55:52Z</time>
      </trkpt>
      <trkpt lat="51.227742216638" lon="4.532217046844">
        <ele>5.6</ele>
        <time>2019-05-18T11:55:59Z</time>
      </trkpt>
      <trkpt lat="51.227777001523" lon="4.531927619837">
        <ele>4.6</ele>
        <time>2019-05-18T11:56:07Z</time>
      </trkpt>
      <trkpt lat="51.227741043172" lon="4.531612879492">
        <ele>5.4</ele>
        <time>2019-05-18T11:56:15Z</time>
      </trkpt>
      <trkpt lat="51.227720758974" lon="4.531315573499">
        <ele>7.6</ele>
        <time>2019-05-18T11:56:22Z</time>
      </trkpt>
      <trkpt lat="51.227796028436" lon="4.531045927776">
        <ele>7.4</ele>
        <time>2019-05-18T11:56:29Z</time>
      </trkpt>
      <trkpt lat="51.227837099746" lon="4.531006784303">
        <ele>7.4</ele>
        <time>2019-05-18T11:56:31Z</time>
      </trkpt>
      <trkpt lat="51.228010605076" lon="4.531085993258">
        <ele>7.8</ele>
        <time>2019-05-18T11:56:40Z</time>
      </trkpt>
      <trkpt lat="51.228171537556" lon="4.530910895367">
        <ele>9</ele>
        <time>2019-05-18T11:56:48Z</time>
      </trkpt>
      <trkpt lat="51.228282597731" lon="4.530644015671">
        <ele>7.6</ele>
        <time>2019-05-18T11:56:56Z</time>
      </trkpt>
      <trkpt lat="51.228313024028" lon="4.530363808754">
        <ele>6.2</ele>
        <time>2019-05-18T11:57:03Z</time>
      </trkpt>
      <trkpt lat="51.228294332391" lon="4.530064826381">
        <ele>4.6</ele>
        <time>2019-05-18T11:57:11Z</time>
      </trkpt>
      <trkpt lat="51.22828268155" lon="4.529762155972">
        <ele>2.6</ele>
        <time>2019-05-18T11:57:19Z</time>
      </trkpt>
      <trkpt lat="51.228278406781" lon="4.529440793926">
        <ele>0</ele>
        <time>2019-05-18T11:57:27Z</time>
      </trkpt>
      <trkpt lat="51.228321070652" lon="4.529149690539">
        <ele>0.6</ele>
        <time>2019-05-18T11:57:34Z</time>
      </trkpt>
      <trkpt lat="51.228355101166" lon="4.528866885233">
        <ele>3.4</ele>
        <time>2019-05-18T11:57:41Z</time>
      </trkpt>
      <trkpt lat="51.22835308951" lon="4.528572261448">
        <ele>2.6</ele>
        <time>2019-05-18T11:57:48Z</time>
      </trkpt>
      <trkpt lat="51.228364991808" lon="4.528269255763">
        <ele>2</ele>
        <time>2019-05-18T11:57:55Z</time>
      </trkpt>
      <trkpt lat="51.228356023175" lon="4.527980583127">
        <ele>1.6</ele>
        <time>2019-05-18T11:58:02Z</time>
      </trkpt>
      <trkpt lat="51.228335906615" lon="4.527677661261">
        <ele>6</ele>
        <time>2019-05-18T11:58:09Z</time>
      </trkpt>
      <trkpt lat="51.228267258854" lon="4.527382366924">
        <ele>8.8</ele>
        <time>2019-05-18T11:58:17Z</time>
      </trkpt>
      <trkpt lat="51.228222750965" lon="4.527066536932">
        <ele>12.4</ele>
        <time>2019-05-18T11:58:25Z</time>
      </trkpt>
      <trkpt lat="51.228165251131" lon="4.526777948115">
        <ele>15.2</ele>
        <time>2019-05-18T11:58:32Z</time>
      </trkpt>
      <trkpt lat="51.228130298608" lon="4.526488437289">
        <ele>14.4</ele>
        <time>2019-05-18T11:58:39Z</time>
      </trkpt>
      <trkpt lat="51.228096519551" lon="4.526164728311">
        <ele>15.6</ele>
        <time>2019-05-18T11:58:47Z</time>
      </trkpt>
      <trkpt lat="51.228047317798" lon="4.525873373467">
        <ele>15</ele>
        <time>2019-05-18T11:58:54Z</time>
      </trkpt>
      <trkpt lat="51.228018484062" lon="4.525582018623">
        <ele>15.6</ele>
        <time>2019-05-18T11:59:01Z</time>
      </trkpt>
      <trkpt lat="51.227941370582" lon="4.525285886096">
        <ele>15.6</ele>
        <time>2019-05-18T11:59:08Z</time>
      </trkpt>
      <trkpt lat="51.227886301499" lon="4.525002410238">
        <ele>15.6</ele>
        <time>2019-05-18T11:59:15Z</time>
      </trkpt>
      <trkpt lat="51.227878003418" lon="4.524709043738">
        <ele>17.8</ele>
        <time>2019-05-18T11:59:22Z</time>
      </trkpt>
      <trkpt lat="51.227847577121" lon="4.524406205691">
        <ele>19.2</ele>
        <time>2019-05-18T11:59:29Z</time>
      </trkpt>
      <trkpt lat="51.227786640708" lon="4.524107977689">
        <ele>20</ele>
        <time>2019-05-18T11:59:36Z</time>
      </trkpt>
      <trkpt lat="51.227675077619" lon="4.523853251748">
        <ele>18</ele>
        <time>2019-05-18T11:59:43Z</time>
      </trkpt>
      <trkpt lat="51.227632749024" lon="4.523536918842">
        <ele>18.4</ele>
        <time>2019-05-18T11:59:51Z</time>
      </trkpt>
      <trkpt lat="51.227621852554" lon="4.523429295246">
        <ele>18</ele>
        <time>2019-05-18T11:59:54Z</time>
      </trkpt>
      <trkpt lat="51.227533172052" lon="4.523175407495">
        <ele>18.6</ele>
        <time>2019-05-18T12:00:01Z</time>
      </trkpt>
      <trkpt lat="51.227549768214" lon="4.522865025738">
        <ele>17</ele>
        <time>2019-05-18T12:00:08Z</time>
      </trkpt>
      <trkpt lat="51.227470978354" lon="4.522566881555">
        <ele>16.4</ele>
        <time>2019-05-18T12:00:15Z</time>
      </trkpt>
      <trkpt lat="51.227410544855" lon="4.522261193662">
        <ele>14.2</ele>
        <time>2019-05-18T12:00:23Z</time>
      </trkpt>
      <trkpt lat="51.227351368641" lon="4.521974784139">
        <ele>15.6</ele>
        <time>2019-05-18T12:00:30Z</time>
      </trkpt>
      <trkpt lat="51.227361426921" lon="4.521675382671">
        <ele>15.8</ele>
        <time>2019-05-18T12:00:37Z</time>
      </trkpt>
      <trkpt lat="51.227384728603" lon="4.521364078905">
        <ele>18.8</ele>
        <time>2019-05-18T12:00:45Z</time>
      </trkpt>
      <trkpt lat="51.227346674777" lon="4.521052523682">
        <ele>20</ele>
        <time>2019-05-18T12:00:52Z</time>
      </trkpt>
      <trkpt lat="51.227312225168" lon="4.520770053652">
        <ele>21.6</ele>
        <time>2019-05-18T12:00:59Z</time>
      </trkpt>
      <trkpt lat="51.227236033697" lon="4.520445757941">
        <ele>24.8</ele>
        <time>2019-05-18T12:01:07Z</time>
      </trkpt>
      <trkpt lat="51.227182640994" lon="4.520152978174">
        <ele>21.6</ele>
        <time>2019-05-18T12:01:15Z</time>
      </trkpt>
      <trkpt lat="51.22712849392" lon="4.519877465121">
        <ele>18.2</ele>
        <time>2019-05-18T12:01:22Z</time>
      </trkpt>
      <trkpt lat="51.227070323534" lon="4.519597425842">
        <ele>16</ele>
        <time>2019-05-18T12:01:29Z</time>
      </trkpt>
      <trkpt lat="51.227020954143" lon="4.519302634419">
        <ele>17.4</ele>
        <time>2019-05-18T12:01:36Z</time>
      </trkpt>
      <trkpt lat="51.227016679374" lon="4.519002227123">
        <ele>18.2</ele>
        <time>2019-05-18T12:01:43Z</time>
      </trkpt>
      <trkpt lat="51.226995724624" lon="4.518684888389">
        <ele>20.2</ele>
        <time>2019-05-18T12:01:50Z</time>
      </trkpt>
      <trkpt lat="51.226924646112" lon="4.518400322884">
        <ele>20.4</ele>
        <time>2019-05-18T12:01:57Z</time>
      </trkpt>
      <trkpt lat="51.226886676105" lon="4.518098323027">
        <ele>21.4</ele>
        <time>2019-05-18T12:02:04Z</time>
      </trkpt>
      <trkpt lat="51.226844263691" lon="4.517804369794">
        <ele>17.2</ele>
        <time>2019-05-18T12:02:11Z</time>
      </trkpt>
      <trkpt lat="51.226794391386" lon="4.517505638878">
        <ele>17.2</ele>
        <time>2019-05-18T12:02:18Z</time>
      </trkpt>
      <trkpt lat="51.226730102213" lon="4.517189389791">
        <ele>15.6</ele>
        <time>2019-05-18T12:02:26Z</time>
      </trkpt>
      <trkpt lat="51.226671093637" lon="4.516904237553">
        <ele>14.2</ele>
        <time>2019-05-18T12:02:33Z</time>
      </trkpt>
      <trkpt lat="51.226615856916" lon="4.516603159705">
        <ele>13.2</ele>
        <time>2019-05-18T12:02:40Z</time>
      </trkpt>
      <trkpt lat="51.22655349558" lon="4.516312894508">
        <ele>10.8</ele>
        <time>2019-05-18T12:02:47Z</time>
      </trkpt>
      <trkpt lat="51.226456349359" lon="4.516024473329">
        <ele>14.4</ele>
        <time>2019-05-18T12:02:55Z</time>
      </trkpt>
      <trkpt lat="51.226414272221" lon="4.51573772853">
        <ele>14.8</ele>
        <time>2019-05-18T12:03:02Z</time>
      </trkpt>
      <trkpt lat="51.226392982195" lon="4.515442853288">
        <ele>16.8</ele>
        <time>2019-05-18T12:03:09Z</time>
      </trkpt>
      <trkpt lat="51.226360963337" lon="4.515141943078">
        <ele>17.6</ele>
        <time>2019-05-18T12:03:16Z</time>
      </trkpt>
      <trkpt lat="51.226289214273" lon="4.514850839691">
        <ele>17.6</ele>
        <time>2019-05-18T12:03:23Z</time>
      </trkpt>
      <trkpt lat="51.22628778935" lon="4.514599801786">
        <ele>20.6</ele>
        <time>2019-05-18T12:03:29Z</time>
      </trkpt>
      <trkpt lat="51.226150242371" lon="4.514359073618">
        <ele>16.6</ele>
        <time>2019-05-18T12:03:36Z</time>
      </trkpt>
      <trkpt lat="51.226119648436" lon="4.514077777054">
        <ele>15.6</ele>
        <time>2019-05-18T12:03:43Z</time>
      </trkpt>
      <trkpt lat="51.226067177742" lon="4.513791954264">
        <ele>10.8</ele>
        <time>2019-05-18T12:03:50Z</time>
      </trkpt>
      <trkpt lat="51.226015042324" lon="4.513502946352">
        <ele>6.6</ele>
        <time>2019-05-18T12:03:57Z</time>
      </trkpt>
      <trkpt lat="51.225967265494" lon="4.513224415815">
        <ele>5.4</ele>
        <time>2019-05-18T12:04:04Z</time>
      </trkpt>
      <trkpt lat="51.225928457297" lon="4.512930378763">
        <ele>5.2</ele>
        <time>2019-05-18T12:04:11Z</time>
      </trkpt>
      <trkpt lat="51.225883278856" lon="4.512621924843">
        <ele>7</ele>
        <time>2019-05-18T12:04:19Z</time>
      </trkpt>
      <trkpt lat="51.225887218349" lon="4.512320511719">
        <ele>12.4</ele>
        <time>2019-05-18T12:04:26Z</time>
      </trkpt>
      <trkpt lat="51.225868778169" lon="4.512013231265">
        <ele>18</ele>
        <time>2019-05-18T12:04:33Z</time>
      </trkpt>
      <trkpt lat="51.225719245073" lon="4.511807036525">
        <ele>14.2</ele>
        <time>2019-05-18T12:04:40Z</time>
      </trkpt>
      <trkpt lat="51.225599216265" lon="4.511548538729">
        <ele>11.6</ele>
        <time>2019-05-18T12:04:48Z</time>
      </trkpt>
      <trkpt lat="51.225538279852" lon="4.511253747306">
        <ele>13</ele>
        <time>2019-05-18T12:04:56Z</time>
      </trkpt>
      <trkpt lat="51.225506009537" lon="4.510970858181">
        <ele>10.8</ele>
        <time>2019-05-18T12:05:03Z</time>
      </trkpt>
      <trkpt lat="51.225419759786" lon="4.510703727028">
        <ele>9.2</ele>
        <time>2019-05-18T12:05:10Z</time>
      </trkpt>
      <trkpt lat="51.225325379592" lon="4.510430644726">
        <ele>7</ele>
        <time>2019-05-18T12:05:17Z</time>
      </trkpt>
      <trkpt lat="51.225268047396" lon="4.51014867761">
        <ele>4.6</ele>
        <time>2019-05-18T12:05:24Z</time>
      </trkpt>
      <trkpt lat="51.225199399635" lon="4.50988380957">
        <ele>2.8</ele>
        <time>2019-05-18T12:05:31Z</time>
      </trkpt>
      <trkpt lat="51.225141229249" lon="4.509609805259">
        <ele>0</ele>
        <time>2019-05-18T12:05:38Z</time>
      </trkpt>
      <trkpt lat="51.225088926193" lon="4.509321719356">
        <ele>1</ele>
        <time>2019-05-18T12:05:46Z</time>
      </trkpt>
      <trkpt lat="51.225036204042" lon="4.509018546033">
        <ele>6.4</ele>
        <time>2019-05-18T12:05:54Z</time>
      </trkpt>
      <trkpt lat="51.224974429439" lon="4.508739596401">
        <ele>10</ele>
        <time>2019-05-18T12:06:01Z</time>
      </trkpt>
      <trkpt lat="51.224935202147" lon="4.508452432507">
        <ele>9.4</ele>
        <time>2019-05-18T12:06:08Z</time>
      </trkpt>
      <trkpt lat="51.224872840811" lon="4.508175745988">
        <ele>7.8</ele>
        <time>2019-05-18T12:06:15Z</time>
      </trkpt>
      <trkpt lat="51.224822297954" lon="4.507883133859">
        <ele>8</ele>
        <time>2019-05-18T12:06:22Z</time>
      </trkpt>
      <trkpt lat="51.224752392908" lon="4.507604268046">
        <ele>6.8</ele>
        <time>2019-05-18T12:06:29Z</time>
      </trkpt>
      <trkpt lat="51.224685840622" lon="4.507291958452">
        <ele>9.6</ele>
        <time>2019-05-18T12:06:37Z</time>
      </trkpt>
      <trkpt lat="51.224617611956" lon="4.506925753241">
        <ele>9.4</ele>
        <time>2019-05-18T12:06:46Z</time>
      </trkpt>
      <trkpt lat="51.224563883977" lon="4.5066458816">
        <ele>7</ele>
        <time>2019-05-18T12:06:53Z</time>
      </trkpt>
      <trkpt lat="51.224527338893" lon="4.506359723534">
        <ele>6</ele>
        <time>2019-05-18T12:07:00Z</time>
      </trkpt>
      <trkpt lat="51.224503366659" lon="4.506073565468">
        <ele>6.2</ele>
        <time>2019-05-18T12:07:07Z</time>
      </trkpt>
      <trkpt lat="51.224422146048" lon="4.50581523531">
        <ele>7</ele>
        <time>2019-05-18T12:07:14Z</time>
      </trkpt>
      <trkpt lat="51.224404879334" lon="4.505803668288">
        <ele>7.4</ele>
        <time>2019-05-18T12:07:17Z</time>
      </trkpt>
      <trkpt lat="51.224454081087" lon="4.505974910505">
        <ele>5.4</ele>
        <time>2019-05-18T12:07:23Z</time>
      </trkpt>
      <trkpt lat="51.224465312833" lon="4.505927468951">
        <ele>4.2</ele>
        <time>2019-05-18T12:07:26Z</time>
      </trkpt>
      <trkpt lat="51.224380236548" lon="4.505640388876">
        <ele>4</ele>
        <time>2019-05-18T12:07:35Z</time>
      </trkpt>
      <trkpt lat="51.224347882414" lon="4.505353476439">
        <ele>3.2</ele>
        <time>2019-05-18T12:07:42Z</time>
      </trkpt>
      <trkpt lat="51.224295579358" lon="4.505060696672">
        <ele>4.4</ele>
        <time>2019-05-18T12:07:49Z</time>
      </trkpt>
      <trkpt lat="51.22424092937" lon="4.504766324344">
        <ele>5.6</ele>
        <time>2019-05-18T12:07:56Z</time>
      </trkpt>
      <trkpt lat="51.224185189735" lon="4.504490140739">
        <ele>5.6</ele>
        <time>2019-05-18T12:08:03Z</time>
      </trkpt>
      <trkpt lat="51.22412274458" lon="4.504216387885">
        <ele>4.6</ele>
        <time>2019-05-18T12:08:10Z</time>
      </trkpt>
      <trkpt lat="51.224055605561" lon="4.503930816552">
        <ele>5.8</ele>
        <time>2019-05-18T12:08:17Z</time>
      </trkpt>
      <trkpt lat="51.223986873981" lon="4.503644407029">
        <ele>5</ele>
        <time>2019-05-18T12:08:24Z</time>
      </trkpt>
      <trkpt lat="51.223931972536" lon="4.50335766223">
        <ele>3.2</ele>
        <time>2019-05-18T12:08:31Z</time>
      </trkpt>
      <trkpt lat="51.223865923164" lon="4.503077790589">
        <ele>0.6</ele>
        <time>2019-05-18T12:08:38Z</time>
      </trkpt>
      <trkpt lat="51.223809764434" lon="4.502802528993">
        <ele>0</ele>
        <time>2019-05-18T12:08:45Z</time>
      </trkpt>
      <trkpt lat="51.223756036455" lon="4.502518382583">
        <ele>1.8</ele>
        <time>2019-05-18T12:08:52Z</time>
      </trkpt>
      <trkpt lat="51.22369778225" lon="4.502218897296">
        <ele>2.6</ele>
        <time>2019-05-18T12:08:59Z</time>
      </trkpt>
      <trkpt lat="51.223631229964" lon="4.501927793909">
        <ele>2.6</ele>
        <time>2019-05-18T12:09:06Z</time>
      </trkpt>
      <trkpt lat="51.223576160881" lon="4.501646832621">
        <ele>3</ele>
        <time>2019-05-18T12:09:13Z</time>
      </trkpt>
      <trkpt lat="51.223506255835" lon="4.5013569027">
        <ele>2.2</ele>
        <time>2019-05-18T12:09:21Z</time>
      </trkpt>
      <trkpt lat="51.223454790969" lon="4.50107443267">
        <ele>1.2</ele>
        <time>2019-05-18T12:09:28Z</time>
      </trkpt>
      <trkpt lat="51.223416653324" lon="4.500779976523">
        <ele>0.4</ele>
        <time>2019-05-18T12:09:35Z</time>
      </trkpt>
      <trkpt lat="51.223363595897" lon="4.500479401589">
        <ele>0.2</ele>
        <time>2019-05-18T12:09:42Z</time>
      </trkpt>
      <trkpt lat="51.223322440768" lon="4.500196261007">
        <ele>0</ele>
        <time>2019-05-18T12:09:49Z</time>
      </trkpt>
      <trkpt lat="51.223248344772" lon="4.499910354398">
        <ele>1.6</ele>
        <time>2019-05-18T12:09:56Z</time>
      </trkpt>
      <trkpt lat="51.223186234893" lon="4.499637020639">
        <ele>0.4</ele>
        <time>2019-05-18T12:10:03Z</time>
      </trkpt>
      <trkpt lat="51.223114653467" lon="4.49934692308">
        <ele>0</ele>
        <time>2019-05-18T12:10:10Z</time>
      </trkpt>
      <trkpt lat="51.223040808928" lon="4.499061016471">
        <ele>1</ele>
        <time>2019-05-18T12:10:17Z</time>
      </trkpt>
      <trkpt lat="51.22298448256" lon="4.498744599746">
        <ele>1.4</ele>
        <time>2019-05-18T12:10:25Z</time>
      </trkpt>
      <trkpt lat="51.222922791776" lon="4.498459698965">
        <ele>0.8</ele>
        <time>2019-05-18T12:10:32Z</time>
      </trkpt>
      <trkpt lat="51.222850288341" lon="4.498181419885">
        <ele>1</ele>
        <time>2019-05-18T12:10:39Z</time>
      </trkpt>
      <trkpt lat="51.222776108526" lon="4.49791697094">
        <ele>2.4</ele>
        <time>2019-05-18T12:10:46Z</time>
      </trkpt>
      <trkpt lat="51.222718943968" lon="4.497718990462">
        <ele>3.6</ele>
        <time>2019-05-18T12:10:51Z</time>
      </trkpt>
      <trkpt lat="51.222687008929" lon="4.497439621735">
        <ele>3.8</ele>
        <time>2019-05-18T12:10:58Z</time>
      </trkpt>
      <trkpt lat="51.22265172113" lon="4.497157822257">
        <ele>2.4</ele>
        <time>2019-05-18T12:11:05Z</time>
      </trkpt>
      <trkpt lat="51.222589359794" lon="4.496882979756">
        <ele>3.6</ele>
        <time>2019-05-18T12:11:12Z</time>
      </trkpt>
      <trkpt lat="51.222526327906" lon="4.496611406196">
        <ele>5.6</ele>
        <time>2019-05-18T12:11:19Z</time>
      </trkpt>
      <trkpt lat="51.222465559131" lon="4.49633027727">
        <ele>9.8</ele>
        <time>2019-05-18T12:11:26Z</time>
      </trkpt>
      <trkpt lat="51.222409568039" lon="4.496047388145">
        <ele>10.8</ele>
        <time>2019-05-18T12:11:33Z</time>
      </trkpt>
      <trkpt lat="51.222334130939" lon="4.495771288359">
        <ele>13</ele>
        <time>2019-05-18T12:11:40Z</time>
      </trkpt>
      <trkpt lat="51.222258023287" lon="4.495479179144">
        <ele>16</ele>
        <time>2019-05-18T12:11:48Z</time>
      </trkpt>
      <trkpt lat="51.222202702747" lon="4.495193188716">
        <ele>13.6</ele>
        <time>2019-05-18T12:11:55Z</time>
      </trkpt>
      <trkpt lat="51.222149310044" lon="4.494903007338">
        <ele>10.6</ele>
        <time>2019-05-18T12:12:02Z</time>
      </trkpt>
      <trkpt lat="51.222095330608" lon="4.494617938919">
        <ele>7.4</ele>
        <time>2019-05-18T12:12:09Z</time>
      </trkpt>
      <trkpt lat="51.22204738614" lon="4.494314095044">
        <ele>5.6</ele>
        <time>2019-05-18T12:12:17Z</time>
      </trkpt>
      <trkpt lat="51.221955939611" lon="4.493767259888">
        <ele>4.6</ele>
        <time>2019-05-18T12:12:31Z</time>
      </trkpt>
      <trkpt lat="51.221946132788" lon="4.493639435913">
        <ele>5.2</ele>
        <time>2019-05-18T12:12:34Z</time>
      </trkpt>
      <trkpt lat="51.221964153873" lon="4.493524687702">
        <ele>5.4</ele>
        <time>2019-05-18T12:12:37Z</time>
      </trkpt>
      <trkpt lat="51.221887208031" lon="4.493237942903">
        <ele>4.4</ele>
        <time>2019-05-18T12:12:45Z</time>
      </trkpt>
      <trkpt lat="51.221834569699" lon="4.492927393508">
        <ele>5</ele>
        <time>2019-05-18T12:12:53Z</time>
      </trkpt>
      <trkpt lat="51.221773381829" lon="4.492644672021">
        <ele>5.4</ele>
        <time>2019-05-18T12:13:00Z</time>
      </trkpt>
      <trkpt lat="51.221722419877" lon="4.492358346317">
        <ele>3.8</ele>
        <time>2019-05-18T12:13:07Z</time>
      </trkpt>
      <trkpt lat="51.221631308624" lon="4.492099261788">
        <ele>4</ele>
        <time>2019-05-18T12:13:14Z</time>
      </trkpt>
      <trkpt lat="51.221567187089" lon="4.491796088465">
        <ele>3.4</ele>
        <time>2019-05-18T12:13:22Z</time>
      </trkpt>
      <trkpt lat="51.221515638404" lon="4.491515546272">
        <ele>3.2</ele>
        <time>2019-05-18T12:13:29Z</time>
      </trkpt>
      <trkpt lat="51.221428718101" lon="4.491238356839">
        <ele>3.4</ele>
        <time>2019-05-18T12:13:36Z</time>
      </trkpt>
      <trkpt lat="51.221361159987" lon="4.490929232367">
        <ele>4.6</ele>
        <time>2019-05-18T12:13:44Z</time>
      </trkpt>
      <trkpt lat="51.221271473657" lon="4.490643074301">
        <ele>3.6</ele>
        <time>2019-05-18T12:13:51Z</time>
      </trkpt>
      <trkpt lat="51.221217158945" lon="4.490367980343">
        <ele>3.6</ele>
        <time>2019-05-18T12:13:58Z</time>
      </trkpt>
      <trkpt lat="51.221170471762" lon="4.490053239998">
        <ele>5.2</ele>
        <time>2019-05-18T12:14:06Z</time>
      </trkpt>
      <trkpt lat="51.221115235041" lon="4.489751743055">
        <ele>4.4</ele>
        <time>2019-05-18T12:14:14Z</time>
      </trkpt>
      <trkpt lat="51.221064356908" lon="4.489441361298">
        <ele>4.4</ele>
        <time>2019-05-18T12:14:22Z</time>
      </trkpt>
      <trkpt lat="51.221012053852" lon="4.48914363621">
        <ele>2.8</ele>
        <time>2019-05-18T12:14:29Z</time>
      </trkpt>
      <trkpt lat="51.220953967285" lon="4.488864099845">
        <ele>3.4</ele>
        <time>2019-05-18T12:14:36Z</time>
      </trkpt>
      <trkpt lat="51.220889929569" lon="4.488590011715">
        <ele>2.4</ele>
        <time>2019-05-18T12:14:43Z</time>
      </trkpt>
      <trkpt lat="51.220824383111" lon="4.488312906101">
        <ele>2</ele>
        <time>2019-05-18T12:14:50Z</time>
      </trkpt>
      <trkpt lat="51.220764703983" lon="4.488007134389">
        <ele>1.2</ele>
        <time>2019-05-18T12:14:58Z</time>
      </trkpt>
      <trkpt lat="51.220717932981" lon="4.487687448723">
        <ele>1.2</ele>
        <time>2019-05-18T12:15:06Z</time>
      </trkpt>
      <trkpt lat="51.220672503083" lon="4.487400620105">
        <ele>0</ele>
        <time>2019-05-18T12:15:13Z</time>
      </trkpt>
      <trkpt lat="51.220637299103" lon="4.487101134818">
        <ele>0</ele>
        <time>2019-05-18T12:15:20Z</time>
      </trkpt>
      <trkpt lat="51.220578122889" lon="4.486817994236">
        <ele>0.6</ele>
        <time>2019-05-18T12:15:27Z</time>
      </trkpt>
      <trkpt lat="51.220525316919" lon="4.486537200586">
        <ele>3.4</ele>
        <time>2019-05-18T12:15:34Z</time>
      </trkpt>
      <trkpt lat="51.22049924921" lon="4.486211731409">
        <ele>5.6</ele>
        <time>2019-05-18T12:15:41Z</time>
      </trkpt>
      <trkpt lat="51.220490783491" lon="4.485901182014">
        <ele>4.2</ele>
        <time>2019-05-18T12:15:49Z</time>
      </trkpt>
      <trkpt lat="51.220421213721" lon="4.485591973723">
        <ele>3.8</ele>
        <time>2019-05-18T12:15:57Z</time>
      </trkpt>
      <trkpt lat="51.220351141037" lon="4.4852804185">
        <ele>2.4</ele>
        <time>2019-05-18T12:16:05Z</time>
      </trkpt>
      <trkpt lat="51.220293138289" lon="4.484973221865">
        <ele>1.4</ele>
        <time>2019-05-18T12:16:13Z</time>
      </trkpt>
      <trkpt lat="51.220224825804" lon="4.484691925301">
        <ele>1.2</ele>
        <time>2019-05-18T12:16:21Z</time>
      </trkpt>
      <trkpt lat="51.22014134208" lon="4.484393781118">
        <ele>0.4</ele>
        <time>2019-05-18T12:16:29Z</time>
      </trkpt>
      <trkpt lat="51.220070347387" lon="4.484127823431">
        <ele>0.6</ele>
        <time>2019-05-18T12:16:36Z</time>
      </trkpt>
      <trkpt lat="51.219994072097" lon="4.483858932079">
        <ele>0</ele>
        <time>2019-05-18T12:16:43Z</time>
      </trkpt>
      <trkpt lat="51.219980493419" lon="4.483534133454">
        <ele>1.8</ele>
        <time>2019-05-18T12:16:52Z</time>
      </trkpt>
      <trkpt lat="51.219919473187" lon="4.483248310664">
        <ele>3</ele>
        <time>2019-05-18T12:16:59Z</time>
      </trkpt>
      <trkpt lat="51.219862476267" lon="4.482959302752">
        <ele>4</ele>
        <time>2019-05-18T12:17:06Z</time>
      </trkpt>
      <trkpt lat="51.219812101048" lon="4.482673731419">
        <ele>5.2</ele>
        <time>2019-05-18T12:17:13Z</time>
      </trkpt>
      <trkpt lat="51.219753595386" lon="4.48237525196">
        <ele>6.8</ele>
        <time>2019-05-18T12:17:20Z</time>
      </trkpt>
      <trkpt lat="51.219697269018" lon="4.482070737533">
        <ele>6.4</ele>
        <time>2019-05-18T12:17:27Z</time>
      </trkpt>
      <trkpt lat="51.219632896026" lon="4.481766809839">
        <ele>5.6</ele>
        <time>2019-05-18T12:17:34Z</time>
      </trkpt>
      <trkpt lat="51.219552178329" lon="4.481459864661">
        <ele>5.4</ele>
        <time>2019-05-18T12:17:41Z</time>
      </trkpt>
      <trkpt lat="51.219474561935" lon="4.481187452911">
        <ele>6.4</ele>
        <time>2019-05-18T12:17:48Z</time>
      </trkpt>
      <trkpt lat="51.219412871151" lon="4.480901378664">
        <ele>5</ele>
        <time>2019-05-18T12:17:55Z</time>
      </trkpt>
      <trkpt lat="51.219339697164" lon="4.480627374353">
        <ele>6.8</ele>
        <time>2019-05-18T12:18:02Z</time>
      </trkpt>
      <trkpt lat="51.21934506158" lon="4.480589991079">
        <ele>7.6</ele>
        <time>2019-05-18T12:18:03Z</time>
      </trkpt>
      <trkpt lat="51.219352772928" lon="4.480243567152">
        <ele>6.6</ele>
        <time>2019-05-18T12:18:12Z</time>
      </trkpt>
      <trkpt lat="51.21927800638" lon="4.479979369664">
        <ele>4</ele>
        <time>2019-05-18T12:18:19Z</time>
      </trkpt>
      <trkpt lat="51.219254285603" lon="4.479665048414">
        <ele>6.6</ele>
        <time>2019-05-18T12:18:27Z</time>
      </trkpt>
      <trkpt lat="51.219215309768" lon="4.479372352466">
        <ele>6.4</ele>
        <time>2019-05-18T12:18:34Z</time>
      </trkpt>
      <trkpt lat="51.219132245139" lon="4.479103544933">
        <ele>6.2</ele>
        <time>2019-05-18T12:18:41Z</time>
      </trkpt>
      <trkpt lat="51.219028141941" lon="4.478853680494">
        <ele>3.4</ele>
        <time>2019-05-18T12:18:48Z</time>
      </trkpt>
      <trkpt lat="51.218965193872" lon="4.478571126645">
        <ele>0</ele>
        <time>2019-05-18T12:18:56Z</time>
      </trkpt>
      <trkpt lat="51.218903838364" lon="4.478293601936">
        <ele>0</ele>
        <time>2019-05-18T12:19:03Z</time>
      </trkpt>
      <trkpt lat="51.21883544206" lon="4.477997301771">
        <ele>0</ele>
        <time>2019-05-18T12:19:11Z</time>
      </trkpt>
      <trkpt lat="51.218746510101" lon="4.477744755124">
        <ele>0</ele>
        <time>2019-05-18T12:19:18Z</time>
      </trkpt>
      <trkpt lat="51.218746510101" lon="4.477413837712">
        <ele>0</ele>
        <time>2019-05-18T12:19:27Z</time>
      </trkpt>
      <trkpt lat="51.218728405197" lon="4.47713069713">
        <ele>1</ele>
        <time>2019-05-18T12:19:35Z</time>
      </trkpt>
      <trkpt lat="51.218753886173" lon="4.476835989526">
        <ele>0.6</ele>
        <time>2019-05-18T12:19:43Z</time>
      </trkpt>
      <trkpt lat="51.218770985249" lon="4.476512615824">
        <ele>0</ele>
        <time>2019-05-18T12:19:51Z</time>
      </trkpt>
      <trkpt lat="51.218789006334" lon="4.476211454157">
        <ele>0</ele>
        <time>2019-05-18T12:19:58Z</time>
      </trkpt>
      <trkpt lat="51.218813062387" lon="4.475923116797">
        <ele>0</ele>
        <time>2019-05-18T12:20:05Z</time>
      </trkpt>
      <trkpt lat="51.218836699345" lon="4.475603347312">
        <ele>0</ele>
        <time>2019-05-18T12:20:13Z</time>
      </trkpt>
      <trkpt lat="51.218871316592" lon="4.475317608341">
        <ele>0</ele>
        <time>2019-05-18T12:20:20Z</time>
      </trkpt>
      <trkpt lat="51.218906269115" lon="4.475014015923">
        <ele>0</ele>
        <time>2019-05-18T12:20:28Z</time>
      </trkpt>
      <trkpt lat="51.218936779231" lon="4.474708160392">
        <ele>0.8</ele>
        <time>2019-05-18T12:20:36Z</time>
      </trkpt>
      <trkpt lat="51.219007103372" lon="4.474412866055">
        <ele>2</ele>
        <time>2019-05-18T12:20:44Z</time>
      </trkpt>
      <trkpt lat="51.219063848835" lon="4.474135760441">
        <ele>2.6</ele>
        <time>2019-05-18T12:20:52Z</time>
      </trkpt>
      <trkpt lat="51.219102489394" lon="4.473814230757">
        <ele>0.4</ele>
        <time>2019-05-18T12:21:00Z</time>
      </trkpt>
      <trkpt lat="51.219163258169" lon="4.47350552538">
        <ele>0</ele>
        <time>2019-05-18T12:21:08Z</time>
      </trkpt>
      <trkpt lat="51.219216483234" lon="4.473193215786">
        <ele>0</ele>
        <time>2019-05-18T12:21:16Z</time>
      </trkpt>
      <trkpt lat="51.219277084371" lon="4.472906470987">
        <ele>0</ele>
        <time>2019-05-18T12:21:23Z</time>
      </trkpt>
      <trkpt lat="51.219301140424" lon="4.472617463075">
        <ele>0</ele>
        <time>2019-05-18T12:21:30Z</time>
      </trkpt>
      <trkpt lat="51.219356041869" lon="4.472328203706">
        <ele>0</ele>
        <time>2019-05-18T12:21:38Z</time>
      </trkpt>
      <trkpt lat="51.219393257505" lon="4.472021509985">
        <ele>0</ele>
        <time>2019-05-18T12:21:46Z</time>
      </trkpt>
      <trkpt lat="51.219434999367" lon="4.471709451848">
        <ele>0</ele>
        <time>2019-05-18T12:21:55Z</time>
      </trkpt>
      <trkpt lat="51.219473891383" lon="4.471381049006">
        <ele>0</ele>
        <time>2019-05-18T12:22:03Z</time>
      </trkpt>
      <trkpt lat="51.219543042058" lon="4.471061614797">
        <ele>0</ele>
        <time>2019-05-18T12:22:10Z</time>
      </trkpt>
      <trkpt lat="51.219607163593" lon="4.470752406506">
        <ele>0</ele>
        <time>2019-05-18T12:22:17Z</time>
      </trkpt>
      <trkpt lat="51.219613450018" lon="4.470666492031">
        <ele>0</ele>
        <time>2019-05-18T12:22:19Z</time>
      </trkpt>
      <trkpt lat="51.219616467502" lon="4.470621062133">
        <ele>0</ele>
        <time>2019-05-18T12:22:20Z</time>
      </trkpt>
      <trkpt lat="51.219668770558" lon="4.470343118329">
        <ele>0</ele>
        <time>2019-05-18T12:22:27Z</time>
      </trkpt>
      <trkpt lat="51.219714787189" lon="4.470038603902">
        <ele>0</ele>
        <time>2019-05-18T12:22:34Z</time>
      </trkpt>
      <trkpt lat="51.21979181685" lon="4.469773568224">
        <ele>0</ele>
        <time>2019-05-18T12:22:41Z</time>
      </trkpt>
      <trkpt lat="51.21983456454" lon="4.469478190068">
        <ele>0</ele>
        <time>2019-05-18T12:22:48Z</time>
      </trkpt>
      <trkpt lat="51.219898015523" lon="4.469208292888">
        <ele>0</ele>
        <time>2019-05-18T12:22:55Z</time>
      </trkpt>
      <trkpt lat="51.219967501474" lon="4.469208879621">
        <ele>0</ele>
        <time>2019-05-18T12:22:58Z</time>
      </trkpt>
      <trkpt lat="51.2200558467" lon="4.469270486586">
        <ele>0</ele>
        <time>2019-05-18T12:23:02Z</time>
      </trkpt>
      <trkpt lat="51.220208900194" lon="4.46908155856">
        <ele>0</ele>
        <time>2019-05-18T12:23:09Z</time>
      </trkpt>
      <trkpt lat="51.220313506306" lon="4.468969995471">
        <ele>5.4</ele>
        <time>2019-05-18T12:23:20Z</time>
      </trkpt>
      <trkpt lat="51.22017403149" lon="4.468791963915">
        <ele>6.6</ele>
        <time>2019-05-18T12:23:27Z</time>
      </trkpt>
      <trkpt lat="51.220181659019" lon="4.468472026792">
        <ele>2</ele>
        <time>2019-05-18T12:23:34Z</time>
      </trkpt>
      <trkpt lat="51.220188783634" lon="4.468162231768">
        <ele>2</ele>
        <time>2019-05-18T12:23:41Z</time>
      </trkpt>
      <trkpt lat="51.220138576053" lon="4.467870038734">
        <ele>3.6</ele>
        <time>2019-05-18T12:23:48Z</time>
      </trkpt>
      <trkpt lat="51.2201312838" lon="4.467569547619">
        <ele>4.8</ele>
        <time>2019-05-18T12:23:55Z</time>
      </trkpt>
      <trkpt lat="51.220162632106" lon="4.467061939755">
        <ele>4.6</ele>
        <time>2019-05-18T12:24:06Z</time>
      </trkpt>
      <trkpt lat="51.220176881336" lon="4.46676647778">
        <ele>3.8</ele>
        <time>2019-05-18T12:24:13Z</time>
      </trkpt>
      <trkpt lat="51.220171936015" lon="4.466437572024">
        <ele>4.2</ele>
        <time>2019-05-18T12:24:21Z</time>
      </trkpt>
      <trkpt lat="51.220218539379" lon="4.466146300999">
        <ele>0</ele>
        <time>2019-05-18T12:24:29Z</time>
      </trkpt>
      <trkpt lat="51.220410903984" lon="4.466117131987">
        <ele>0</ele>
        <time>2019-05-18T12:24:38Z</time>
      </trkpt>
      <trkpt lat="51.220598658544" lon="4.466075473944">
        <ele>0</ele>
        <time>2019-05-18T12:24:46Z</time>
      </trkpt>
      <trkpt lat="51.220781886878" lon="4.466024428173">
        <ele>6.2</ele>
        <time>2019-05-18T12:24:55Z</time>
      </trkpt>
      <trkpt lat="51.220988500713" lon="4.466021578327">
        <ele>9</ele>
        <time>2019-05-18T12:25:02Z</time>
      </trkpt>
      <trkpt lat="51.221169465934" lon="4.465963910855">
        <ele>8.4</ele>
        <time>2019-05-18T12:25:08Z</time>
      </trkpt>
      <trkpt lat="51.221291925493" lon="4.465728714741">
        <ele>9.2</ele>
        <time>2019-05-18T12:25:16Z</time>
      </trkpt>
      <trkpt lat="51.221280777566" lon="4.465697953168">
        <ele>9.8</ele>
        <time>2019-05-18T12:25:17Z</time>
      </trkpt>
      <trkpt lat="51.221266947431" lon="4.465399976623">
        <ele>9</ele>
        <time>2019-05-18T12:25:25Z</time>
      </trkpt>
      <trkpt lat="51.221229731795" lon="4.465088253762">
        <ele>6.2</ele>
        <time>2019-05-18T12:25:33Z</time>
      </trkpt>
      <trkpt lat="51.221208022674" lon="4.464767897544">
        <ele>3.2</ele>
        <time>2019-05-18T12:25:41Z</time>
      </trkpt>
      <trkpt lat="51.221197377661" lon="4.464455671769">
        <ele>2.6</ele>
        <time>2019-05-18T12:25:48Z</time>
      </trkpt>
      <trkpt lat="51.22120249062" lon="4.464148894229">
        <ele>2.6</ele>
        <time>2019-05-18T12:25:55Z</time>
      </trkpt>
      <trkpt lat="51.221233587469" lon="4.463829795296">
        <ele>3.2</ele>
        <time>2019-05-18T12:26:03Z</time>
      </trkpt>
      <trkpt lat="51.221317657926" lon="4.463501476273">
        <ele>4.2</ele>
        <time>2019-05-18T12:26:09Z</time>
      </trkpt>
      <trkpt lat="51.221369793344" lon="4.463200985158">
        <ele>5.4</ele>
        <time>2019-05-18T12:26:15Z</time>
      </trkpt>
      <trkpt lat="51.221381611823" lon="4.462868391366">
        <ele>7.2</ele>
        <time>2019-05-18T12:26:22Z</time>
      </trkpt>
      <trkpt lat="51.221374822484" lon="4.46255792579">
        <ele>7.2</ele>
        <time>2019-05-18T12:26:29Z</time>
      </trkpt>
      <trkpt lat="51.221455372543" lon="4.462451224203">
        <ele>6.6</ele>
        <time>2019-05-18T12:26:34Z</time>
      </trkpt>
      <trkpt lat="51.221538185715" lon="4.462466898356">
        <ele>5</ele>
        <time>2019-05-18T12:26:38Z</time>
      </trkpt>
      <trkpt lat="51.221576490998" lon="4.462469412926">
        <ele>6</ele>
        <time>2019-05-18T12:26:40Z</time>
      </trkpt>
      <trkpt lat="51.221793833665" lon="4.46258810063">
        <ele>6</ele>
        <time>2019-05-18T12:26:46Z</time>
      </trkpt>
      <trkpt lat="51.221993909618" lon="4.462703267936">
        <ele>9</ele>
        <time>2019-05-18T12:26:53Z</time>
      </trkpt>
      <trkpt lat="51.222189291707" lon="4.462717098071">
        <ele>15.8</ele>
        <time>2019-05-18T12:26:59Z</time>
      </trkpt>
      <trkpt lat="51.222381991588" lon="4.46265599402">
        <ele>20.6</ele>
        <time>2019-05-18T12:27:05Z</time>
      </trkpt>
      <trkpt lat="51.222570835795" lon="4.462575443961">
        <ele>22.8</ele>
        <time>2019-05-18T12:27:11Z</time>
      </trkpt>
      <trkpt lat="51.222711148801" lon="4.462312419939">
        <ele>21.2</ele>
        <time>2019-05-18T12:27:16Z</time>
      </trkpt>
      <trkpt lat="51.222882391018" lon="4.462225080541">
        <ele>23.6</ele>
        <time>2019-05-18T12:27:24Z</time>
      </trkpt>
      <trkpt lat="51.223053297959" lon="4.462098681489">
        <ele>20.8</ele>
        <time>2019-05-18T12:27:30Z</time>
      </trkpt>
      <trkpt lat="51.223221522692" lon="4.461984939106">
        <ele>19.2</ele>
        <time>2019-05-18T12:27:36Z</time>
      </trkpt>
      <trkpt lat="51.223417575333" lon="4.461870358533">
        <ele>18.4</ele>
        <time>2019-05-18T12:27:43Z</time>
      </trkpt>
      <trkpt lat="51.223565012954" lon="4.46164094593">
        <ele>11.8</ele>
        <time>2019-05-18T12:27:50Z</time>
      </trkpt>
      <trkpt lat="51.223744385614" lon="4.461559809138">
        <ele>14</ele>
        <time>2019-05-18T12:27:57Z</time>
      </trkpt>
      <trkpt lat="51.223935409115" lon="4.461490993739">
        <ele>12.6</ele>
        <time>2019-05-18T12:28:04Z</time>
      </trkpt>
      <trkpt lat="51.224114278861" lon="4.461348920534">
        <ele>13.2</ele>
        <time>2019-05-18T12:28:12Z</time>
      </trkpt>
      <trkpt lat="51.224288203286" lon="4.461202656379">
        <ele>15.2</ele>
        <time>2019-05-18T12:28:20Z</time>
      </trkpt>
      <trkpt lat="51.22443455126" lon="4.460989085567">
        <ele>9.8</ele>
        <time>2019-05-18T12:28:25Z</time>
      </trkpt>
      <trkpt lat="51.224614929748" lon="4.460888335129">
        <ele>14.2</ele>
        <time>2019-05-18T12:28:32Z</time>
      </trkpt>
      <trkpt lat="51.224797738987" lon="4.460798481161">
        <ele>16.2</ele>
        <time>2019-05-18T12:28:39Z</time>
      </trkpt>
      <trkpt lat="51.224981721692" lon="4.460679122905">
        <ele>18.6</ele>
        <time>2019-05-18T12:28:47Z</time>
      </trkpt>
      <trkpt lat="51.225154221194" lon="4.460562027762">
        <ele>19.8</ele>
        <time>2019-05-18T12:28:54Z</time>
      </trkpt>
      <trkpt lat="51.225327726524" lon="4.46044736337">
        <ele>16.6</ele>
        <time>2019-05-18T12:29:01Z</time>
      </trkpt>
      <trkpt lat="51.225523192432" lon="4.460335632643">
        <ele>16.8</ele>
        <time>2019-05-18T12:29:08Z</time>
      </trkpt>
      <trkpt lat="51.225697619771" lon="4.460200432596">
        <ele>17</ele>
        <time>2019-05-18T12:29:15Z</time>
      </trkpt>
      <trkpt lat="51.225866515056" lon="4.460088701869">
        <ele>17.4</ele>
        <time>2019-05-18T12:29:22Z</time>
      </trkpt>
      <trkpt lat="51.226092658718" lon="4.459784606537">
        <ele>12.4</ele>
        <time>2019-05-18T12:29:33Z</time>
      </trkpt>
      <trkpt lat="51.226091317614" lon="4.45974244558">
        <ele>11.4</ele>
        <time>2019-05-18T12:29:34Z</time>
      </trkpt>
      <trkpt lat="51.225997524153" lon="4.459464334138">
        <ele>11.2</ele>
        <time>2019-05-18T12:29:40Z</time>
      </trkpt>
      <trkpt lat="51.225891996032" lon="4.45918337285">
        <ele>7.4</ele>
        <time>2019-05-18T12:29:47Z</time>
      </trkpt>
      <trkpt lat="51.225809685774" lon="4.458909536177">
        <ele>4</ele>
        <time>2019-05-18T12:29:54Z</time>
      </trkpt>
      <trkpt lat="51.225926194184" lon="4.458615163849">
        <ele>14.4</ele>
        <time>2019-05-18T12:30:00Z</time>
      </trkpt>
      <trkpt lat="51.226097687858" lon="4.458471917178">
        <ele>12.4</ele>
        <time>2019-05-18T12:30:06Z</time>
      </trkpt>
      <trkpt lat="51.22627270193" lon="4.458371082921">
        <ele>10</ele>
        <time>2019-05-18T12:30:12Z</time>
      </trkpt>
      <trkpt lat="51.226476968833" lon="4.458280055487">
        <ele>6.2</ele>
        <time>2019-05-18T12:30:19Z</time>
      </trkpt>
      <trkpt lat="51.226657179683" lon="4.458177125755">
        <ele>1.2</ele>
        <time>2019-05-18T12:30:26Z</time>
      </trkpt>
      <trkpt lat="51.226835043601" lon="4.458038656767">
        <ele>0</ele>
        <time>2019-05-18T12:30:34Z</time>
      </trkpt>
      <trkpt lat="51.226978038815" lon="4.45782718143">
        <ele>0</ele>
        <time>2019-05-18T12:30:42Z</time>
      </trkpt>
      <trkpt lat="51.227149532489" lon="4.45773498053">
        <ele>2</ele>
        <time>2019-05-18T12:30:50Z</time>
      </trkpt>
      <trkpt lat="51.227332090271" lon="4.457644707467">
        <ele>4.8</ele>
        <time>2019-05-18T12:30:59Z</time>
      </trkpt>
      <trkpt lat="51.227524035781" lon="4.457589386927">
        <ele>5.6</ele>
        <time>2019-05-18T12:31:08Z</time>
      </trkpt>
      <trkpt lat="51.227702570251" lon="4.457501293158">
        <ele>7</ele>
        <time>2019-05-18T12:31:16Z</time>
      </trkpt>
      <trkpt lat="51.227880434169" lon="4.457394591571">
        <ele>8.6</ele>
        <time>2019-05-18T12:31:23Z</time>
      </trkpt>
      <trkpt lat="51.228050000006" lon="4.457295685151">
        <ele>12.6</ele>
        <time>2019-05-18T12:31:30Z</time>
      </trkpt>
      <trkpt lat="51.228239850041" lon="4.457212201427">
        <ele>14.2</ele>
        <time>2019-05-18T12:31:37Z</time>
      </trkpt>
      <trkpt lat="51.228394579915" lon="4.457019836822">
        <ele>6.4</ele>
        <time>2019-05-18T12:31:43Z</time>
      </trkpt>
      <trkpt lat="51.228591303108" lon="4.456973652553">
        <ele>7</ele>
        <time>2019-05-18T12:31:50Z</time>
      </trkpt>
      <trkpt lat="51.228791127604" lon="4.45694540555">
        <ele>9</ele>
        <time>2019-05-18T12:31:57Z</time>
      </trkpt>
      <trkpt lat="51.22898759934" lon="4.456935263451">
        <ele>16</ele>
        <time>2019-05-18T12:32:05Z</time>
      </trkpt>
      <trkpt lat="51.229167474914" lon="4.45689176139">
        <ele>13.8</ele>
        <time>2019-05-18T12:32:12Z</time>
      </trkpt>
      <trkpt lat="51.229352966361" lon="4.45682805895">
        <ele>12</ele>
        <time>2019-05-18T12:32:19Z</time>
      </trkpt>
      <trkpt lat="51.22954331931" lon="4.456768044546">
        <ele>11.4</ele>
        <time>2019-05-18T12:32:26Z</time>
      </trkpt>
      <trkpt lat="51.229722524332" lon="4.45670568321">
        <ele>12.4</ele>
        <time>2019-05-18T12:32:33Z</time>
      </trkpt>
      <trkpt lat="51.229899633879" lon="4.456622450943">
        <ele>12.8</ele>
        <time>2019-05-18T12:32:40Z</time>
      </trkpt>
      <trkpt lat="51.230084873869" lon="4.45651792865">
        <ele>12.6</ele>
        <time>2019-05-18T12:32:47Z</time>
      </trkpt>
      <trkpt lat="51.230279585406" lon="4.456480126281">
        <ele>11.4</ele>
        <time>2019-05-18T12:32:55Z</time>
      </trkpt>
      <trkpt lat="51.230466753233" lon="4.45640812576">
        <ele>9.2</ele>
        <time>2019-05-18T12:33:03Z</time>
      </trkpt>
      <trkpt lat="51.230651993223" lon="4.456407455208">
        <ele>12.4</ele>
        <time>2019-05-18T12:33:10Z</time>
      </trkpt>
      <trkpt lat="51.23083748467" lon="4.456364036966">
        <ele>13.2</ele>
        <time>2019-05-18T12:33:17Z</time>
      </trkpt>
      <trkpt lat="51.230999087702" lon="4.456169073972">
        <ele>1</ele>
        <time>2019-05-18T12:33:22Z</time>
      </trkpt>
      <trkpt lat="51.231182567493" lon="4.456299747793">
        <ele>0</ele>
        <time>2019-05-18T12:33:30Z</time>
      </trkpt>
      <trkpt lat="51.231243839182" lon="4.456599735994">
        <ele>0</ele>
        <time>2019-05-18T12:33:37Z</time>
      </trkpt>
      <trkpt lat="51.231257836955" lon="4.456906681172">
        <ele>0</ele>
        <time>2019-05-18T12:33:44Z</time>
      </trkpt>
      <trkpt lat="51.231304188862" lon="4.457193090695">
        <ele>0</ele>
        <time>2019-05-18T12:33:51Z</time>
      </trkpt>
      <trkpt lat="51.231320449748" lon="4.457508082497">
        <ele>1.8</ele>
        <time>2019-05-18T12:33:58Z</time>
      </trkpt>
      <trkpt lat="51.231152811748" lon="4.457698686903">
        <ele>4.8</ele>
        <time>2019-05-18T12:34:05Z</time>
      </trkpt>
      <trkpt lat="51.230956256193" lon="4.457717629997">
        <ele>4.4</ele>
        <time>2019-05-18T12:34:12Z</time>
      </trkpt>
      <trkpt lat="51.230765316511" lon="4.457765071551">
        <ele>3.8</ele>
        <time>2019-05-18T12:34:21Z</time>
      </trkpt>
      <trkpt lat="51.230572197535" lon="4.457809411802">
        <ele>3.6</ele>
        <time>2019-05-18T12:34:29Z</time>
      </trkpt>
      <trkpt lat="51.230369942288" lon="4.457829360724">
        <ele>2.6</ele>
        <time>2019-05-18T12:34:38Z</time>
      </trkpt>
      <trkpt lat="51.23016777086" lon="4.457809327983">
        <ele>7.6</ele>
        <time>2019-05-18T12:34:44Z</time>
      </trkpt>
      <trkpt lat="51.229974735703" lon="4.457919466149">
        <ele>4.4</ele>
        <time>2019-05-18T12:34:51Z</time>
      </trkpt>
      <trkpt lat="51.229787986971" lon="4.457962632934">
        <ele>3.8</ele>
        <time>2019-05-18T12:34:59Z</time>
      </trkpt>
      <trkpt lat="51.229520185266" lon="4.458036477473">
        <ele>0</ele>
        <time>2019-05-18T12:35:07Z</time>
      </trkpt>
      <trkpt lat="51.229319606399" lon="4.458050475246">
        <ele>1.8</ele>
        <time>2019-05-18T12:35:12Z</time>
      </trkpt>
      <trkpt lat="51.229130007821" lon="4.458095066954">
        <ele>2</ele>
        <time>2019-05-18T12:35:18Z</time>
      </trkpt>
      <trkpt lat="51.228953736464" lon="4.458184837103">
        <ele>2.2</ele>
        <time>2019-05-18T12:35:25Z</time>
      </trkpt>
      <trkpt lat="51.228775788727" lon="4.458262704954">
        <ele>0.4</ele>
        <time>2019-05-18T12:35:33Z</time>
      </trkpt>
      <trkpt lat="51.228752654683" lon="4.458271757406">
        <ele>0</ele>
        <time>2019-05-18T12:35:34Z</time>
      </trkpt>
    </trkseg>
  </trk>
</gpx>